<?xml version="1.0" encoding="UTF-8" standalone="no" ?><gpx xmlns="http://www.topografix.com/GPX/1/1" xmlns:gpxx="http://www.garmin.com/xmlschemas/GpxExtensions/v3" xmlns:wptx1="http://www.garmin.com/xmlschemas/WaypointExtension/v1" xmlns:gpxtpx="http://www.garmin.com/xmlschemas/TrackPointExtension/v1" creator="GuideVTT.com" version="1.1" xmlns:xsi="http://www.w3.org/2001/XMLSchema-instance" xsi:schemaLocation="http://www.topografix.com/GPX/1/1 http://www.topografix.com/GPX/1/1/gpx.xsd http://www.garmin.com/xmlschemas/GpxExtensions/v3 http://www8.garmin.com/xmlschemas/GpxExtensionsv3.xsd http://www.garmin.com/xmlschemas/WaypointExtension/v1 http://www8.garmin.com/xmlschemas/WaypointExtensionv1.xsd http://www.garmin.com/xmlschemas/TrackPointExtension/v1 http://www.garmin.com/xmlschemas/TrackPointExtensionv1.xsd">
<metadata><link href="http://www.garmin.com"><text>Garmin International</text></link><time>2013-06-22T15:13:50Z</time></metadata>
<trk><name>tour_du_mole.gpx</name><extensions><gpxx:TrackExtension><gpxx:DisplayColor>Cyan</gpxx:DisplayColor></gpxx:TrackExtension></extensions><trkseg>
<trkpt lat="46.12554710" lon="6.39416910"><ele></ele><time>2014-4-20T19:52:7Z</time></trkpt>
<trkpt lat="46.12561870" lon="6.39425150"><ele></ele><time>2014-4-20T19:52:10Z</time></trkpt>
<trkpt lat="46.12573510" lon="6.39433090"><ele></ele><time>2014-4-20T19:52:13Z</time></trkpt>
<trkpt lat="46.12580740" lon="6.39431120"><ele></ele><time>2014-4-20T19:52:16Z</time></trkpt>
<trkpt lat="46.12595420" lon="6.39430260"><ele></ele><time>2014-4-20T19:52:19Z</time></trkpt>
<trkpt lat="46.12597430" lon="6.39460860"><ele></ele><time>2014-4-20T19:52:22Z</time></trkpt>
<trkpt lat="46.12595260" lon="6.39472820"><ele></ele><time>2014-4-20T19:52:25Z</time></trkpt>
<trkpt lat="46.12575300" lon="6.39510990"><ele></ele><time>2014-4-20T19:52:28Z</time></trkpt>
<trkpt lat="46.12571710" lon="6.39519330"><ele></ele><time>2014-4-20T19:52:31Z</time></trkpt>
<trkpt lat="46.12595640" lon="6.39575000"><ele></ele><time>2014-4-20T19:52:34Z</time></trkpt>
<trkpt lat="46.12600100" lon="6.39585720"><ele></ele><time>2014-4-20T19:52:37Z</time></trkpt>
<trkpt lat="46.12604630" lon="6.39611420"><ele></ele><time>2014-4-20T19:52:40Z</time></trkpt>
<trkpt lat="46.12589440" lon="6.39625670"><ele></ele><time>2014-4-20T19:52:43Z</time></trkpt>
<trkpt lat="46.12586810" lon="6.39625380"><ele></ele><time>2014-4-20T19:52:46Z</time></trkpt>
<trkpt lat="46.12549170" lon="6.39621200"><ele></ele><time>2014-4-20T19:52:49Z</time></trkpt>
<trkpt lat="46.12503550" lon="6.39605690"><ele></ele><time>2014-4-20T19:52:52Z</time></trkpt>
<trkpt lat="46.12462700" lon="6.39600940"><ele></ele><time>2014-4-20T19:52:55Z</time></trkpt>
<trkpt lat="46.12435820" lon="6.39627210"><ele></ele><time>2014-4-20T19:52:58Z</time></trkpt>
<trkpt lat="46.12430580" lon="6.39633750"><ele></ele><time>2014-4-20T19:53:1Z</time></trkpt>
<trkpt lat="46.12403770" lon="6.39659920"><ele></ele><time>2014-4-20T19:53:4Z</time></trkpt>
<trkpt lat="46.12363280" lon="6.39701450"><ele></ele><time>2014-4-20T19:53:7Z</time></trkpt>
<trkpt lat="46.12329620" lon="6.39735290"><ele></ele><time>2014-4-20T19:53:10Z</time></trkpt>
<trkpt lat="46.12217770" lon="6.39932570"><ele></ele><time>2014-4-20T19:53:13Z</time></trkpt>
<trkpt lat="46.12174980" lon="6.39994740"><ele></ele><time>2014-4-20T19:53:16Z</time></trkpt>
<trkpt lat="46.12167540" lon="6.39986140"><ele></ele><time>2014-4-20T19:53:19Z</time></trkpt>
<trkpt lat="46.12137790" lon="6.39914990"><ele></ele><time>2014-4-20T19:53:22Z</time></trkpt>
<trkpt lat="46.12122780" lon="6.39927830"><ele></ele><time>2014-4-20T19:53:25Z</time></trkpt>
<trkpt lat="46.12120630" lon="6.39973470"><ele></ele><time>2014-4-20T19:53:28Z</time></trkpt>
<trkpt lat="46.12102570" lon="6.40039080"><ele></ele><time>2014-4-20T19:53:31Z</time></trkpt>
<trkpt lat="46.12072990" lon="6.40098230"><ele></ele><time>2014-4-20T19:53:34Z</time></trkpt>
<trkpt lat="46.12030510" lon="6.40054460"><ele></ele><time>2014-4-20T19:53:37Z</time></trkpt>
<trkpt lat="46.12030510" lon="6.40054460"><ele></ele><time>2014-4-20T19:53:40Z</time></trkpt>
<trkpt lat="46.12028360" lon="6.40110250"><ele></ele><time>2014-4-20T19:53:43Z</time></trkpt>
<trkpt lat="46.12033720" lon="6.40104480"><ele></ele><time>2014-4-20T19:53:46Z</time></trkpt>
<trkpt lat="46.12048220" lon="6.40048560"><ele></ele><time>2014-4-20T19:53:49Z</time></trkpt>
<trkpt lat="46.12029140" lon="6.40056890"><ele></ele><time>2014-4-20T19:53:52Z</time></trkpt>
<trkpt lat="46.11997600" lon="6.40106180"><ele></ele><time>2014-4-20T19:53:55Z</time></trkpt>
<trkpt lat="46.11916490" lon="6.40147760"><ele></ele><time>2014-4-20T19:53:58Z</time></trkpt>
<trkpt lat="46.11917430" lon="6.40156820"><ele></ele><time>2014-4-20T19:54:1Z</time></trkpt>
<trkpt lat="46.11925050" lon="6.40162930"><ele></ele><time>2014-4-20T19:54:4Z</time></trkpt>
<trkpt lat="46.11915360" lon="6.40148010"><ele></ele><time>2014-4-20T19:54:7Z</time></trkpt>
<trkpt lat="46.11888050" lon="6.40141210"><ele></ele><time>2014-4-20T19:54:10Z</time></trkpt>
<trkpt lat="46.11888320" lon="6.40182410"><ele></ele><time>2014-4-20T19:54:13Z</time></trkpt>
<trkpt lat="46.11872650" lon="6.40188620"><ele></ele><time>2014-4-20T19:54:16Z</time></trkpt>
<trkpt lat="46.11858270" lon="6.40193400"><ele></ele><time>2014-4-20T19:54:19Z</time></trkpt>
<trkpt lat="46.11843200" lon="6.40204390"><ele></ele><time>2014-4-20T19:54:22Z</time></trkpt>
<trkpt lat="46.11839530" lon="6.40228270"><ele></ele><time>2014-4-20T19:54:25Z</time></trkpt>
<trkpt lat="46.11867430" lon="6.40131710"><ele></ele><time>2014-4-20T19:54:28Z</time></trkpt>
<trkpt lat="46.11884280" lon="6.40278180"><ele></ele><time>2014-4-20T19:54:31Z</time></trkpt>
<trkpt lat="46.11864330" lon="6.40322510"><ele></ele><time>2014-4-20T19:54:34Z</time></trkpt>
<trkpt lat="46.11830280" lon="6.40359320"><ele></ele><time>2014-4-20T19:54:37Z</time></trkpt>
<trkpt lat="46.11791350" lon="6.40381480"><ele></ele><time>2014-4-20T19:54:40Z</time></trkpt>
<trkpt lat="46.11774470" lon="6.40390650"><ele></ele><time>2014-4-20T19:54:43Z</time></trkpt>
<trkpt lat="46.11736900" lon="6.40411090"><ele></ele><time>2014-4-20T19:54:46Z</time></trkpt>
<trkpt lat="46.11699510" lon="6.40432200"><ele></ele><time>2014-4-20T19:54:49Z</time></trkpt>
<trkpt lat="46.11663870" lon="6.40458220"><ele></ele><time>2014-4-20T19:54:52Z</time></trkpt>
<trkpt lat="46.11622610" lon="6.40500230"><ele></ele><time>2014-4-20T19:54:55Z</time></trkpt>
<trkpt lat="46.11592840" lon="6.40541410"><ele></ele><time>2014-4-20T19:54:58Z</time></trkpt>
<trkpt lat="46.11561800" lon="6.40591100"><ele></ele><time>2014-4-20T19:55:1Z</time></trkpt>
<trkpt lat="46.11530130" lon="6.40570970"><ele></ele><time>2014-4-20T19:55:4Z</time></trkpt>
<trkpt lat="46.11515280" lon="6.40502440"><ele></ele><time>2014-4-20T19:55:7Z</time></trkpt>
<trkpt lat="46.11479900" lon="6.40464520"><ele></ele><time>2014-4-20T19:55:10Z</time></trkpt>
<trkpt lat="46.11409420" lon="6.40433620"><ele></ele><time>2014-4-20T19:55:13Z</time></trkpt>
<trkpt lat="46.11386280" lon="6.40401920"><ele></ele><time>2014-4-20T19:55:16Z</time></trkpt>
<trkpt lat="46.11391070" lon="6.40336410"><ele></ele><time>2014-4-20T19:55:19Z</time></trkpt>
<trkpt lat="46.11387370" lon="6.40313760"><ele></ele><time>2014-4-20T19:55:22Z</time></trkpt>
<trkpt lat="46.11370630" lon="6.40246280"><ele></ele><time>2014-4-20T19:55:25Z</time></trkpt>
<trkpt lat="46.11363230" lon="6.40209240"><ele></ele><time>2014-4-20T19:55:28Z</time></trkpt>
<trkpt lat="46.11358430" lon="6.40150260"><ele></ele><time>2014-4-20T19:55:31Z</time></trkpt>
<trkpt lat="46.11356320" lon="6.40090190"><ele></ele><time>2014-4-20T19:55:34Z</time></trkpt>
<trkpt lat="46.11343200" lon="6.40043340"><ele></ele><time>2014-4-20T19:55:37Z</time></trkpt>
<trkpt lat="46.11314000" lon="6.40012190"><ele></ele><time>2014-4-20T19:55:40Z</time></trkpt>
<trkpt lat="46.11277990" lon="6.39977180"><ele></ele><time>2014-4-20T19:55:43Z</time></trkpt>
<trkpt lat="46.11257030" lon="6.39956800"><ele></ele><time>2014-4-20T19:55:46Z</time></trkpt>
<trkpt lat="46.11226470" lon="6.39932630"><ele></ele><time>2014-4-20T19:55:49Z</time></trkpt>
<trkpt lat="46.11191420" lon="6.39911900"><ele></ele><time>2014-4-20T19:55:52Z</time></trkpt>
<trkpt lat="46.11155890" lon="6.39880210"><ele></ele><time>2014-4-20T19:55:55Z</time></trkpt>
<trkpt lat="46.11125980" lon="6.39827960"><ele></ele><time>2014-4-20T19:55:58Z</time></trkpt>
<trkpt lat="46.11117250" lon="6.39782220"><ele></ele><time>2014-4-20T19:56:1Z</time></trkpt>
<trkpt lat="46.11107530" lon="6.39786750"><ele></ele><time>2014-4-20T19:56:4Z</time></trkpt>
<trkpt lat="46.11078260" lon="6.39927320"><ele></ele><time>2014-4-20T19:56:7Z</time></trkpt>
<trkpt lat="46.11045930" lon="6.40003070"><ele></ele><time>2014-4-20T19:56:10Z</time></trkpt>
<trkpt lat="46.11013610" lon="6.40059230"><ele></ele><time>2014-4-20T19:56:13Z</time></trkpt>
<trkpt lat="46.10983250" lon="6.40144580"><ele></ele><time>2014-4-20T19:56:16Z</time></trkpt>
<trkpt lat="46.10967420" lon="6.40213270"><ele></ele><time>2014-4-20T19:56:19Z</time></trkpt>
<trkpt lat="46.10950970" lon="6.40253040"><ele></ele><time>2014-4-20T19:56:22Z</time></trkpt>
<trkpt lat="46.10908620" lon="6.40303550"><ele></ele><time>2014-4-20T19:56:25Z</time></trkpt>
<trkpt lat="46.10873970" lon="6.40339000"><ele></ele><time>2014-4-20T19:56:28Z</time></trkpt>
<trkpt lat="46.10831430" lon="6.40383210"><ele></ele><time>2014-4-20T19:56:31Z</time></trkpt>
<trkpt lat="46.10812690" lon="6.40409290"><ele></ele><time>2014-4-20T19:56:34Z</time></trkpt>
<trkpt lat="46.10783170" lon="6.40457140"><ele></ele><time>2014-4-20T19:56:37Z</time></trkpt>
<trkpt lat="46.10761180" lon="6.40492790"><ele></ele><time>2014-4-20T19:56:40Z</time></trkpt>
<trkpt lat="46.10750010" lon="6.40522900"><ele></ele><time>2014-4-20T19:56:43Z</time></trkpt>
<trkpt lat="46.10731300" lon="6.40575280"><ele></ele><time>2014-4-20T19:56:46Z</time></trkpt>
<trkpt lat="46.10715160" lon="6.40628310"><ele></ele><time>2014-4-20T19:56:49Z</time></trkpt>
<trkpt lat="46.10698730" lon="6.40684880"><ele></ele><time>2014-4-20T19:56:52Z</time></trkpt>
<trkpt lat="46.10691610" lon="6.40733450"><ele></ele><time>2014-4-20T19:56:55Z</time></trkpt>
<trkpt lat="46.10673350" lon="6.40757090"><ele></ele><time>2014-4-20T19:56:58Z</time></trkpt>
<trkpt lat="46.10657620" lon="6.40775950"><ele></ele><time>2014-4-20T19:57:1Z</time></trkpt>
<trkpt lat="46.10644780" lon="6.40789930"><ele></ele><time>2014-4-20T19:57:4Z</time></trkpt>
<trkpt lat="46.10621580" lon="6.40811990"><ele></ele><time>2014-4-20T19:57:7Z</time></trkpt>
<trkpt lat="46.10592900" lon="6.40842810"><ele></ele><time>2014-4-20T19:57:10Z</time></trkpt>
<trkpt lat="46.10571690" lon="6.40869550"><ele></ele><time>2014-4-20T19:57:13Z</time></trkpt>
<trkpt lat="46.10548070" lon="6.40882250"><ele></ele><time>2014-4-20T19:57:16Z</time></trkpt>
<trkpt lat="46.10520000" lon="6.40868540"><ele></ele><time>2014-4-20T19:57:19Z</time></trkpt>
<trkpt lat="46.10498310" lon="6.40854310"><ele></ele><time>2014-4-20T19:57:22Z</time></trkpt>
<trkpt lat="46.10477280" lon="6.40851690"><ele></ele><time>2014-4-20T19:57:25Z</time></trkpt>
<trkpt lat="46.10441180" lon="6.40863260"><ele></ele><time>2014-4-20T19:57:28Z</time></trkpt>
<trkpt lat="46.10410640" lon="6.40877890"><ele></ele><time>2014-4-20T19:57:31Z</time></trkpt>
<trkpt lat="46.10394370" lon="6.40892670"><ele></ele><time>2014-4-20T19:57:34Z</time></trkpt>
<trkpt lat="46.10351430" lon="6.40914920"><ele></ele><time>2014-4-20T19:57:37Z</time></trkpt>
<trkpt lat="46.10349500" lon="6.40914920"><ele></ele><time>2014-4-20T19:57:40Z</time></trkpt>
<trkpt lat="46.10325300" lon="6.40903870"><ele></ele><time>2014-4-20T19:57:43Z</time></trkpt>
<trkpt lat="46.10294060" lon="6.40888620"><ele></ele><time>2014-4-20T19:57:46Z</time></trkpt>
<trkpt lat="46.10275750" lon="6.40884720"><ele></ele><time>2014-4-20T19:57:49Z</time></trkpt>
<trkpt lat="46.10244900" lon="6.40878520"><ele></ele><time>2014-4-20T19:57:52Z</time></trkpt>
<trkpt lat="46.10216500" lon="6.40869050"><ele></ele><time>2014-4-20T19:57:55Z</time></trkpt>
<trkpt lat="46.10186870" lon="6.40865560"><ele></ele><time>2014-4-20T19:57:58Z</time></trkpt>
<trkpt lat="46.10144940" lon="6.40868770"><ele></ele><time>2014-4-20T19:58:1Z</time></trkpt>
<trkpt lat="46.10115210" lon="6.40948940"><ele></ele><time>2014-4-20T19:58:4Z</time></trkpt>
<trkpt lat="46.10073570" lon="6.40951380"><ele></ele><time>2014-4-20T19:58:7Z</time></trkpt>
<trkpt lat="46.10053860" lon="6.40987710"><ele></ele><time>2014-4-20T19:58:10Z</time></trkpt>
<trkpt lat="46.10025410" lon="6.41001890"><ele></ele><time>2014-4-20T19:58:13Z</time></trkpt>
<trkpt lat="46.09996610" lon="6.41002890"><ele></ele><time>2014-4-20T19:58:16Z</time></trkpt>
<trkpt lat="46.09985130" lon="6.41002890"><ele></ele><time>2014-4-20T19:58:19Z</time></trkpt>
<trkpt lat="46.09983540" lon="6.41002890"><ele></ele><time>2014-4-20T19:58:22Z</time></trkpt>
<trkpt lat="46.09983540" lon="6.41002890"><ele></ele><time>2014-4-20T19:58:25Z</time></trkpt>
<trkpt lat="46.09983540" lon="6.41002890"><ele></ele><time>2014-4-20T19:58:28Z</time></trkpt>
<trkpt lat="46.09974860" lon="6.41007180"><ele></ele><time>2014-4-20T19:58:31Z</time></trkpt>
<trkpt lat="46.09974860" lon="6.41007180"><ele></ele><time>2014-4-20T19:58:34Z</time></trkpt>
<trkpt lat="46.09974860" lon="6.41007180"><ele></ele><time>2014-4-20T19:58:37Z</time></trkpt>
<trkpt lat="46.09974860" lon="6.41007180"><ele></ele><time>2014-4-20T19:58:40Z</time></trkpt>
<trkpt lat="46.09974860" lon="6.41007180"><ele></ele><time>2014-4-20T19:58:43Z</time></trkpt>
<trkpt lat="46.09974860" lon="6.41007180"><ele></ele><time>2014-4-20T19:58:46Z</time></trkpt>
<trkpt lat="46.09973320" lon="6.41008730"><ele></ele><time>2014-4-20T19:58:49Z</time></trkpt>
<trkpt lat="46.09973320" lon="6.41008730"><ele></ele><time>2014-4-20T19:58:52Z</time></trkpt>
<trkpt lat="46.09961050" lon="6.40999130"><ele></ele><time>2014-4-20T19:58:55Z</time></trkpt>
<trkpt lat="46.09943940" lon="6.41000360"><ele></ele><time>2014-4-20T19:58:58Z</time></trkpt>
<trkpt lat="46.09929420" lon="6.41014380"><ele></ele><time>2014-4-20T19:59:1Z</time></trkpt>
<trkpt lat="46.09927650" lon="6.41017910"><ele></ele><time>2014-4-20T19:59:4Z</time></trkpt>
<trkpt lat="46.09927650" lon="6.41017910"><ele></ele><time>2014-4-20T19:59:7Z</time></trkpt>
<trkpt lat="46.09959710" lon="6.41042360"><ele></ele><time>2014-4-20T19:59:10Z</time></trkpt>
<trkpt lat="46.09958130" lon="6.41052050"><ele></ele><time>2014-4-20T19:59:13Z</time></trkpt>
<trkpt lat="46.09927650" lon="6.41032930"><ele></ele><time>2014-4-20T19:59:16Z</time></trkpt>
<trkpt lat="46.09951350" lon="6.41093880"><ele></ele><time>2014-4-20T19:59:19Z</time></trkpt>
<trkpt lat="46.09948080" lon="6.41114080"><ele></ele><time>2014-4-20T19:59:22Z</time></trkpt>
<trkpt lat="46.09946970" lon="6.41120910"><ele></ele><time>2014-4-20T19:59:25Z</time></trkpt>
<trkpt lat="46.09923360" lon="6.41161290"><ele></ele><time>2014-4-20T19:59:28Z</time></trkpt>
<trkpt lat="46.09920530" lon="6.41218370"><ele></ele><time>2014-4-20T19:59:31Z</time></trkpt>
<trkpt lat="46.09970450" lon="6.41349550"><ele></ele><time>2014-4-20T19:59:34Z</time></trkpt>
<trkpt lat="46.09898480" lon="6.41286770"><ele></ele><time>2014-4-20T19:59:37Z</time></trkpt>
<trkpt lat="46.09888460" lon="6.41282990"><ele></ele><time>2014-4-20T19:59:40Z</time></trkpt>
<trkpt lat="46.09886480" lon="6.41281980"><ele></ele><time>2014-4-20T19:59:43Z</time></trkpt>
<trkpt lat="46.09878930" lon="6.41276300"><ele></ele><time>2014-4-20T19:59:46Z</time></trkpt>
<trkpt lat="46.09858660" lon="6.41243250"><ele></ele><time>2014-4-20T19:59:49Z</time></trkpt>
<trkpt lat="46.09847120" lon="6.41227130"><ele></ele><time>2014-4-20T19:59:52Z</time></trkpt>
<trkpt lat="46.09839570" lon="6.41218900"><ele></ele><time>2014-4-20T19:59:55Z</time></trkpt>
<trkpt lat="46.09832820" lon="6.41211570"><ele></ele><time>2014-4-20T19:59:58Z</time></trkpt>
<trkpt lat="46.09829120" lon="6.41208740"><ele></ele><time>2014-4-20T20:0:1Z</time></trkpt>
<trkpt lat="46.09820430" lon="6.41199830"><ele></ele><time>2014-4-20T20:0:4Z</time></trkpt>
<trkpt lat="46.09814310" lon="6.41189090"><ele></ele><time>2014-4-20T20:0:7Z</time></trkpt>
<trkpt lat="46.09806550" lon="6.41179630"><ele></ele><time>2014-4-20T20:0:10Z</time></trkpt>
<trkpt lat="46.09789700" lon="6.41157980"><ele></ele><time>2014-4-20T20:0:13Z</time></trkpt>
<trkpt lat="46.09786320" lon="6.41150530"><ele></ele><time>2014-4-20T20:0:16Z</time></trkpt>
<trkpt lat="46.09780700" lon="6.41142770"><ele></ele><time>2014-4-20T20:0:19Z</time></trkpt>
<trkpt lat="46.09778680" lon="6.41140830"><ele></ele><time>2014-4-20T20:0:22Z</time></trkpt>
<trkpt lat="46.09770460" lon="6.41131350"><ele></ele><time>2014-4-20T20:0:25Z</time></trkpt>
<trkpt lat="46.09767770" lon="6.41126270"><ele></ele><time>2014-4-20T20:0:28Z</time></trkpt>
<trkpt lat="46.09768740" lon="6.41119160"><ele></ele><time>2014-4-20T20:0:31Z</time></trkpt>
<trkpt lat="46.09756500" lon="6.41120280"><ele></ele><time>2014-4-20T20:0:34Z</time></trkpt>
<trkpt lat="46.09745780" lon="6.41126090"><ele></ele><time>2014-4-20T20:0:37Z</time></trkpt>
<trkpt lat="46.09737310" lon="6.41134690"><ele></ele><time>2014-4-20T20:0:40Z</time></trkpt>
<trkpt lat="46.09731500" lon="6.41140590"><ele></ele><time>2014-4-20T20:0:43Z</time></trkpt>
<trkpt lat="46.09719890" lon="6.41156730"><ele></ele><time>2014-4-20T20:0:46Z</time></trkpt>
<trkpt lat="46.09710220" lon="6.41167920"><ele></ele><time>2014-4-20T20:0:49Z</time></trkpt>
<trkpt lat="46.09697400" lon="6.41187310"><ele></ele><time>2014-4-20T20:0:52Z</time></trkpt>
<trkpt lat="46.09689890" lon="6.41200840"><ele></ele><time>2014-4-20T20:0:55Z</time></trkpt>
<trkpt lat="46.09684030" lon="6.41211410"><ele></ele><time>2014-4-20T20:0:58Z</time></trkpt>
<trkpt lat="46.09682570" lon="6.41217390"><ele></ele><time>2014-4-20T20:1:1Z</time></trkpt>
<trkpt lat="46.09682570" lon="6.41217390"><ele></ele><time>2014-4-20T20:1:4Z</time></trkpt>
<trkpt lat="46.09668870" lon="6.41217860"><ele></ele><time>2014-4-20T20:1:7Z</time></trkpt>
<trkpt lat="46.09657040" lon="6.41213430"><ele></ele><time>2014-4-20T20:1:10Z</time></trkpt>
<trkpt lat="46.09636500" lon="6.41207000"><ele></ele><time>2014-4-20T20:1:13Z</time></trkpt>
<trkpt lat="46.09626370" lon="6.41204530"><ele></ele><time>2014-4-20T20:1:16Z</time></trkpt>
<trkpt lat="46.09621610" lon="6.41206680"><ele></ele><time>2014-4-20T20:1:19Z</time></trkpt>
<trkpt lat="46.09629720" lon="6.41243680"><ele></ele><time>2014-4-20T20:1:22Z</time></trkpt>
<trkpt lat="46.09627780" lon="6.41248430"><ele></ele><time>2014-4-20T20:1:25Z</time></trkpt>
<trkpt lat="46.09611570" lon="6.41272570"><ele></ele><time>2014-4-20T20:1:28Z</time></trkpt>
<trkpt lat="46.09605290" lon="6.41301360"><ele></ele><time>2014-4-20T20:1:31Z</time></trkpt>
<trkpt lat="46.09600270" lon="6.41332100"><ele></ele><time>2014-4-20T20:1:34Z</time></trkpt>
<trkpt lat="46.09589120" lon="6.41355560"><ele></ele><time>2014-4-20T20:1:37Z</time></trkpt>
<trkpt lat="46.09584110" lon="6.41360870"><ele></ele><time>2014-4-20T20:1:40Z</time></trkpt>
<trkpt lat="46.09574400" lon="6.41365530"><ele></ele><time>2014-4-20T20:1:43Z</time></trkpt>
<trkpt lat="46.09569310" lon="6.41364450"><ele></ele><time>2014-4-20T20:1:46Z</time></trkpt>
<trkpt lat="46.09556440" lon="6.41354800"><ele></ele><time>2014-4-20T20:1:49Z</time></trkpt>
<trkpt lat="46.09556440" lon="6.41354800"><ele></ele><time>2014-4-20T20:1:52Z</time></trkpt>
<trkpt lat="46.09558860" lon="6.41357210"><ele></ele><time>2014-4-20T20:1:55Z</time></trkpt>
<trkpt lat="46.09558860" lon="6.41357210"><ele></ele><time>2014-4-20T20:1:58Z</time></trkpt>
<trkpt lat="46.09564000" lon="6.41370260"><ele></ele><time>2014-4-20T20:2:1Z</time></trkpt>
<trkpt lat="46.09564000" lon="6.41370260"><ele></ele><time>2014-4-20T20:2:4Z</time></trkpt>
<trkpt lat="46.09564000" lon="6.41370260"><ele></ele><time>2014-4-20T20:2:7Z</time></trkpt>
<trkpt lat="46.09564000" lon="6.41370260"><ele></ele><time>2014-4-20T20:2:10Z</time></trkpt>
<trkpt lat="46.09564000" lon="6.41370260"><ele></ele><time>2014-4-20T20:2:13Z</time></trkpt>
<trkpt lat="46.09564320" lon="6.41419760"><ele></ele><time>2014-4-20T20:2:16Z</time></trkpt>
<trkpt lat="46.09562870" lon="6.41450100"><ele></ele><time>2014-4-20T20:2:19Z</time></trkpt>
<trkpt lat="46.09562870" lon="6.41451340"><ele></ele><time>2014-4-20T20:2:22Z</time></trkpt>
<trkpt lat="46.09563540" lon="6.41463820"><ele></ele><time>2014-4-20T20:2:25Z</time></trkpt>
<trkpt lat="46.09563540" lon="6.41463820"><ele></ele><time>2014-4-20T20:2:28Z</time></trkpt>
<trkpt lat="46.09595690" lon="6.41544000"><ele></ele><time>2014-4-20T20:2:31Z</time></trkpt>
<trkpt lat="46.09636440" lon="6.41650420"><ele></ele><time>2014-4-20T20:2:34Z</time></trkpt>
<trkpt lat="46.09636440" lon="6.41650420"><ele></ele><time>2014-4-20T20:2:37Z</time></trkpt>
<trkpt lat="46.09617700" lon="6.41725790"><ele></ele><time>2014-4-20T20:2:40Z</time></trkpt>
<trkpt lat="46.09598380" lon="6.41758000"><ele></ele><time>2014-4-20T20:2:43Z</time></trkpt>
<trkpt lat="46.09576100" lon="6.41790300"><ele></ele><time>2014-4-20T20:2:46Z</time></trkpt>
<trkpt lat="46.09565280" lon="6.41806530"><ele></ele><time>2014-4-20T20:2:49Z</time></trkpt>
<trkpt lat="46.09525730" lon="6.41897550"><ele></ele><time>2014-4-20T20:2:52Z</time></trkpt>
<trkpt lat="46.09523860" lon="6.41903560"><ele></ele><time>2014-4-20T20:2:55Z</time></trkpt>
<trkpt lat="46.09519380" lon="6.41921470"><ele></ele><time>2014-4-20T20:2:58Z</time></trkpt>
<trkpt lat="46.09503800" lon="6.41965500"><ele></ele><time>2014-4-20T20:3:1Z</time></trkpt>
<trkpt lat="46.09474270" lon="6.42006780"><ele></ele><time>2014-4-20T20:3:4Z</time></trkpt>
<trkpt lat="46.09467960" lon="6.42018840"><ele></ele><time>2014-4-20T20:3:7Z</time></trkpt>
<trkpt lat="46.09435630" lon="6.42090010"><ele></ele><time>2014-4-20T20:3:10Z</time></trkpt>
<trkpt lat="46.09430030" lon="6.42094900"><ele></ele><time>2014-4-20T20:3:13Z</time></trkpt>
<trkpt lat="46.09335200" lon="6.42243210"><ele></ele><time>2014-4-20T20:3:16Z</time></trkpt>
<trkpt lat="46.09304030" lon="6.42300550"><ele></ele><time>2014-4-20T20:3:19Z</time></trkpt>
<trkpt lat="46.09236720" lon="6.42515520"><ele></ele><time>2014-4-20T20:3:22Z</time></trkpt>
<trkpt lat="46.09236720" lon="6.42521950"><ele></ele><time>2014-4-20T20:3:25Z</time></trkpt>
<trkpt lat="46.09238700" lon="6.42536630"><ele></ele><time>2014-4-20T20:3:28Z</time></trkpt>
<trkpt lat="46.09238700" lon="6.42536630"><ele></ele><time>2014-4-20T20:3:31Z</time></trkpt>
<trkpt lat="46.09236720" lon="6.42513510"><ele></ele><time>2014-4-20T20:3:34Z</time></trkpt>
<trkpt lat="46.09225760" lon="6.42591080"><ele></ele><time>2014-4-20T20:3:37Z</time></trkpt>
<trkpt lat="46.09221810" lon="6.42596600"><ele></ele><time>2014-4-20T20:3:40Z</time></trkpt>
<trkpt lat="46.09211610" lon="6.42613090"><ele></ele><time>2014-4-20T20:3:43Z</time></trkpt>
<trkpt lat="46.09202690" lon="6.42651400"><ele></ele><time>2014-4-20T20:3:46Z</time></trkpt>
<trkpt lat="46.09200800" lon="6.42680020"><ele></ele><time>2014-4-20T20:3:49Z</time></trkpt>
<trkpt lat="46.09200420" lon="6.42690570"><ele></ele><time>2014-4-20T20:3:52Z</time></trkpt>
<trkpt lat="46.09197400" lon="6.42753800"><ele></ele><time>2014-4-20T20:3:55Z</time></trkpt>
<trkpt lat="46.09192220" lon="6.42769310"><ele></ele><time>2014-4-20T20:3:58Z</time></trkpt>
<trkpt lat="46.09171000" lon="6.42826930"><ele></ele><time>2014-4-20T20:4:1Z</time></trkpt>
<trkpt lat="46.09126430" lon="6.42940290"><ele></ele><time>2014-4-20T20:4:4Z</time></trkpt>
<trkpt lat="46.09117170" lon="6.43019030"><ele></ele><time>2014-4-20T20:4:7Z</time></trkpt>
<trkpt lat="46.09103390" lon="6.43049130"><ele></ele><time>2014-4-20T20:4:10Z</time></trkpt>
<trkpt lat="46.09086160" lon="6.43072120"><ele></ele><time>2014-4-20T20:4:13Z</time></trkpt>
<trkpt lat="46.09076700" lon="6.43105790"><ele></ele><time>2014-4-20T20:4:16Z</time></trkpt>
<trkpt lat="46.09082550" lon="6.43170080"><ele></ele><time>2014-4-20T20:4:19Z</time></trkpt>
<trkpt lat="46.09092950" lon="6.43269200"><ele></ele><time>2014-4-20T20:4:22Z</time></trkpt>
<trkpt lat="46.09090240" lon="6.43277640"><ele></ele><time>2014-4-20T20:4:25Z</time></trkpt>
<trkpt lat="46.09090240" lon="6.43277640"><ele></ele><time>2014-4-20T20:4:28Z</time></trkpt>
<trkpt lat="46.09084370" lon="6.43316030"><ele></ele><time>2014-4-20T20:4:31Z</time></trkpt>
<trkpt lat="46.09096160" lon="6.43275790"><ele></ele><time>2014-4-20T20:4:34Z</time></trkpt>
<trkpt lat="46.09105880" lon="6.43279950"><ele></ele><time>2014-4-20T20:4:37Z</time></trkpt>
<trkpt lat="46.09110380" lon="6.43282560"><ele></ele><time>2014-4-20T20:4:40Z</time></trkpt>
<trkpt lat="46.09115340" lon="6.43287230"><ele></ele><time>2014-4-20T20:4:43Z</time></trkpt>
<trkpt lat="46.09121800" lon="6.43298760"><ele></ele><time>2014-4-20T20:4:46Z</time></trkpt>
<trkpt lat="46.09123390" lon="6.43319150"><ele></ele><time>2014-4-20T20:4:49Z</time></trkpt>
<trkpt lat="46.09124150" lon="6.43331910"><ele></ele><time>2014-4-20T20:4:52Z</time></trkpt>
<trkpt lat="46.09118820" lon="6.43345500"><ele></ele><time>2014-4-20T20:4:55Z</time></trkpt>
<trkpt lat="46.09113850" lon="6.43377080"><ele></ele><time>2014-4-20T20:4:58Z</time></trkpt>
<trkpt lat="46.09113180" lon="6.43399840"><ele></ele><time>2014-4-20T20:5:1Z</time></trkpt>
<trkpt lat="46.09111270" lon="6.43413910"><ele></ele><time>2014-4-20T20:5:4Z</time></trkpt>
<trkpt lat="46.09106500" lon="6.43411300"><ele></ele><time>2014-4-20T20:5:7Z</time></trkpt>
<trkpt lat="46.09105990" lon="6.43425370"><ele></ele><time>2014-4-20T20:5:10Z</time></trkpt>
<trkpt lat="46.09111250" lon="6.43448320"><ele></ele><time>2014-4-20T20:5:13Z</time></trkpt>
<trkpt lat="46.09117660" lon="6.43470360"><ele></ele><time>2014-4-20T20:5:16Z</time></trkpt>
<trkpt lat="46.09117410" lon="6.43480280"><ele></ele><time>2014-4-20T20:5:19Z</time></trkpt>
<trkpt lat="46.09110230" lon="6.43510000"><ele></ele><time>2014-4-20T20:5:22Z</time></trkpt>
<trkpt lat="46.09110230" lon="6.43511250"><ele></ele><time>2014-4-20T20:5:25Z</time></trkpt>
<trkpt lat="46.09109590" lon="6.43529310"><ele></ele><time>2014-4-20T20:5:28Z</time></trkpt>
<trkpt lat="46.09114440" lon="6.43552740"><ele></ele><time>2014-4-20T20:5:31Z</time></trkpt>
<trkpt lat="46.09111210" lon="6.43578290"><ele></ele><time>2014-4-20T20:5:34Z</time></trkpt>
<trkpt lat="46.09111780" lon="6.43581440"><ele></ele><time>2014-4-20T20:5:37Z</time></trkpt>
<trkpt lat="46.09111580" lon="6.43608220"><ele></ele><time>2014-4-20T20:5:40Z</time></trkpt>
<trkpt lat="46.09112230" lon="6.43634110"><ele></ele><time>2014-4-20T20:5:43Z</time></trkpt>
<trkpt lat="46.09123730" lon="6.43659970"><ele></ele><time>2014-4-20T20:5:46Z</time></trkpt>
<trkpt lat="46.09133690" lon="6.43682860"><ele></ele><time>2014-4-20T20:5:49Z</time></trkpt>
<trkpt lat="46.09133590" lon="6.43684150"><ele></ele><time>2014-4-20T20:5:52Z</time></trkpt>
<trkpt lat="46.09137510" lon="6.43705450"><ele></ele><time>2014-4-20T20:5:55Z</time></trkpt>
<trkpt lat="46.09140660" lon="6.43720300"><ele></ele><time>2014-4-20T20:5:58Z</time></trkpt>
<trkpt lat="46.09151660" lon="6.43739360"><ele></ele><time>2014-4-20T20:6:1Z</time></trkpt>
<trkpt lat="46.09162210" lon="6.43748180"><ele></ele><time>2014-4-20T20:6:4Z</time></trkpt>
<trkpt lat="46.09171650" lon="6.43762310"><ele></ele><time>2014-4-20T20:6:7Z</time></trkpt>
<trkpt lat="46.09185780" lon="6.43776590"><ele></ele><time>2014-4-20T20:6:10Z</time></trkpt>
<trkpt lat="46.09186130" lon="6.43777660"><ele></ele><time>2014-4-20T20:6:13Z</time></trkpt>
<trkpt lat="46.09189780" lon="6.43784390"><ele></ele><time>2014-4-20T20:6:16Z</time></trkpt>
<trkpt lat="46.09193220" lon="6.43789850"><ele></ele><time>2014-4-20T20:6:19Z</time></trkpt>
<trkpt lat="46.09203110" lon="6.43808920"><ele></ele><time>2014-4-20T20:6:22Z</time></trkpt>
<trkpt lat="46.09208270" lon="6.43817930"><ele></ele><time>2014-4-20T20:6:25Z</time></trkpt>
<trkpt lat="46.09217280" lon="6.43838160"><ele></ele><time>2014-4-20T20:6:28Z</time></trkpt>
<trkpt lat="46.09222640" lon="6.43863140"><ele></ele><time>2014-4-20T20:6:31Z</time></trkpt>
<trkpt lat="46.09222370" lon="6.43864480"><ele></ele><time>2014-4-20T20:6:34Z</time></trkpt>
<trkpt lat="46.09220570" lon="6.43888730"><ele></ele><time>2014-4-20T20:6:37Z</time></trkpt>
<trkpt lat="46.09228080" lon="6.43909390"><ele></ele><time>2014-4-20T20:6:40Z</time></trkpt>
<trkpt lat="46.09228980" lon="6.43927650"><ele></ele><time>2014-4-20T20:6:43Z</time></trkpt>
<trkpt lat="46.09232350" lon="6.43946850"><ele></ele><time>2014-4-20T20:6:46Z</time></trkpt>
<trkpt lat="46.09234250" lon="6.43949600"><ele></ele><time>2014-4-20T20:6:49Z</time></trkpt>
<trkpt lat="46.09246930" lon="6.43972480"><ele></ele><time>2014-4-20T20:6:52Z</time></trkpt>
<trkpt lat="46.09273250" lon="6.44010660"><ele></ele><time>2014-4-20T20:6:55Z</time></trkpt>
<trkpt lat="46.09283020" lon="6.44044220"><ele></ele><time>2014-4-20T20:6:58Z</time></trkpt>
<trkpt lat="46.09284730" lon="6.44065120"><ele></ele><time>2014-4-20T20:7:1Z</time></trkpt>
<trkpt lat="46.09279970" lon="6.44082260"><ele></ele><time>2014-4-20T20:7:4Z</time></trkpt>
<trkpt lat="46.09268330" lon="6.44102600"><ele></ele><time>2014-4-20T20:7:7Z</time></trkpt>
<trkpt lat="46.09269000" lon="6.44109550"><ele></ele><time>2014-4-20T20:7:10Z</time></trkpt>
<trkpt lat="46.09274840" lon="6.44094190"><ele></ele><time>2014-4-20T20:7:13Z</time></trkpt>
<trkpt lat="46.09278270" lon="6.44071950"><ele></ele><time>2014-4-20T20:7:16Z</time></trkpt>
<trkpt lat="46.09282170" lon="6.44068930"><ele></ele><time>2014-4-20T20:7:19Z</time></trkpt>
<trkpt lat="46.09282160" lon="6.44047850"><ele></ele><time>2014-4-20T20:7:22Z</time></trkpt>
<trkpt lat="46.09271310" lon="6.44016100"><ele></ele><time>2014-4-20T20:7:25Z</time></trkpt>
<trkpt lat="46.09274800" lon="6.44010270"><ele></ele><time>2014-4-20T20:7:28Z</time></trkpt>
<trkpt lat="46.09287750" lon="6.44010520"><ele></ele><time>2014-4-20T20:7:31Z</time></trkpt>
<trkpt lat="46.09314290" lon="6.44031330"><ele></ele><time>2014-4-20T20:7:34Z</time></trkpt>
<trkpt lat="46.09328570" lon="6.44057190"><ele></ele><time>2014-4-20T20:7:37Z</time></trkpt>
<trkpt lat="46.09345130" lon="6.44076260"><ele></ele><time>2014-4-20T20:7:40Z</time></trkpt>
<trkpt lat="46.09355250" lon="6.44089200"><ele></ele><time>2014-4-20T20:7:43Z</time></trkpt>
<trkpt lat="46.09367210" lon="6.44109240"><ele></ele><time>2014-4-20T20:7:46Z</time></trkpt>
<trkpt lat="46.09375260" lon="6.44116730"><ele></ele><time>2014-4-20T20:7:49Z</time></trkpt>
<trkpt lat="46.09377190" lon="6.44119650"><ele></ele><time>2014-4-20T20:7:52Z</time></trkpt>
<trkpt lat="46.09372190" lon="6.44129870"><ele></ele><time>2014-4-20T20:7:55Z</time></trkpt>
<trkpt lat="46.09369700" lon="6.44132090"><ele></ele><time>2014-4-20T20:7:58Z</time></trkpt>
<trkpt lat="46.09358310" lon="6.44142610"><ele></ele><time>2014-4-20T20:8:1Z</time></trkpt>
<trkpt lat="46.09355890" lon="6.44143680"><ele></ele><time>2014-4-20T20:8:4Z</time></trkpt>
<trkpt lat="46.09345140" lon="6.44147080"><ele></ele><time>2014-4-20T20:8:7Z</time></trkpt>
<trkpt lat="46.09335850" lon="6.44157890"><ele></ele><time>2014-4-20T20:8:10Z</time></trkpt>
<trkpt lat="46.09334540" lon="6.44159690"><ele></ele><time>2014-4-20T20:8:13Z</time></trkpt>
<trkpt lat="46.09328830" lon="6.44166880"><ele></ele><time>2014-4-20T20:8:16Z</time></trkpt>
<trkpt lat="46.09324560" lon="6.44172010"><ele></ele><time>2014-4-20T20:8:19Z</time></trkpt>
<trkpt lat="46.09322040" lon="6.44175280"><ele></ele><time>2014-4-20T20:8:22Z</time></trkpt>
<trkpt lat="46.09314270" lon="6.44186110"><ele></ele><time>2014-4-20T20:8:25Z</time></trkpt>
<trkpt lat="46.09309490" lon="6.44197600"><ele></ele><time>2014-4-20T20:8:28Z</time></trkpt>
<trkpt lat="46.09308780" lon="6.44200250"><ele></ele><time>2014-4-20T20:8:31Z</time></trkpt>
<trkpt lat="46.09302280" lon="6.44229830"><ele></ele><time>2014-4-20T20:8:34Z</time></trkpt>
<trkpt lat="46.09303570" lon="6.44232290"><ele></ele><time>2014-4-20T20:8:37Z</time></trkpt>
<trkpt lat="46.09300650" lon="6.44239050"><ele></ele><time>2014-4-20T20:8:40Z</time></trkpt>
<trkpt lat="46.09301240" lon="6.44240710"><ele></ele><time>2014-4-20T20:8:43Z</time></trkpt>
<trkpt lat="46.09299320" lon="6.44246630"><ele></ele><time>2014-4-20T20:8:46Z</time></trkpt>
<trkpt lat="46.09297030" lon="6.44249840"><ele></ele><time>2014-4-20T20:8:49Z</time></trkpt>
<trkpt lat="46.09296190" lon="6.44250790"><ele></ele><time>2014-4-20T20:8:52Z</time></trkpt>
<trkpt lat="46.09294170" lon="6.44252130"><ele></ele><time>2014-4-20T20:8:55Z</time></trkpt>
<trkpt lat="46.09286290" lon="6.44252120"><ele></ele><time>2014-4-20T20:8:58Z</time></trkpt>
<trkpt lat="46.09277390" lon="6.44248620"><ele></ele><time>2014-4-20T20:9:1Z</time></trkpt>
<trkpt lat="46.09274750" lon="6.44247490"><ele></ele><time>2014-4-20T20:9:4Z</time></trkpt>
<trkpt lat="46.09259110" lon="6.44250720"><ele></ele><time>2014-4-20T20:9:7Z</time></trkpt>
<trkpt lat="46.09255310" lon="6.44254050"><ele></ele><time>2014-4-20T20:9:10Z</time></trkpt>
<trkpt lat="46.09244340" lon="6.44264760"><ele></ele><time>2014-4-20T20:9:13Z</time></trkpt>
<trkpt lat="46.09240670" lon="6.44269700"><ele></ele><time>2014-4-20T20:9:16Z</time></trkpt>
<trkpt lat="46.09231860" lon="6.44275230"><ele></ele><time>2014-4-20T20:9:19Z</time></trkpt>
<trkpt lat="46.09230680" lon="6.44275260"><ele></ele><time>2014-4-20T20:9:22Z</time></trkpt>
<trkpt lat="46.09228590" lon="6.44275610"><ele></ele><time>2014-4-20T20:9:25Z</time></trkpt>
<trkpt lat="46.09223450" lon="6.44274380"><ele></ele><time>2014-4-20T20:9:28Z</time></trkpt>
<trkpt lat="46.09221730" lon="6.44274790"><ele></ele><time>2014-4-20T20:9:31Z</time></trkpt>
<trkpt lat="46.09210350" lon="6.44288310"><ele></ele><time>2014-4-20T20:9:34Z</time></trkpt>
<trkpt lat="46.09194280" lon="6.44297150"><ele></ele><time>2014-4-20T20:9:37Z</time></trkpt>
<trkpt lat="46.09181320" lon="6.44301510"><ele></ele><time>2014-4-20T20:9:40Z</time></trkpt>
<trkpt lat="46.09171100" lon="6.44303270"><ele></ele><time>2014-4-20T20:9:43Z</time></trkpt>
<trkpt lat="46.09158500" lon="6.44304970"><ele></ele><time>2014-4-20T20:9:46Z</time></trkpt>
<trkpt lat="46.09145470" lon="6.44307700"><ele></ele><time>2014-4-20T20:9:49Z</time></trkpt>
<trkpt lat="46.09139960" lon="6.44310100"><ele></ele><time>2014-4-20T20:9:52Z</time></trkpt>
<trkpt lat="46.09138160" lon="6.44311370"><ele></ele><time>2014-4-20T20:9:55Z</time></trkpt>
<trkpt lat="46.09132000" lon="6.44315600"><ele></ele><time>2014-4-20T20:9:58Z</time></trkpt>
<trkpt lat="46.09123150" lon="6.44319090"><ele></ele><time>2014-4-20T20:10:1Z</time></trkpt>
<trkpt lat="46.09107220" lon="6.44340800"><ele></ele><time>2014-4-20T20:10:4Z</time></trkpt>
<trkpt lat="46.09103100" lon="6.44342550"><ele></ele><time>2014-4-20T20:10:7Z</time></trkpt>
<trkpt lat="46.09083460" lon="6.44350980"><ele></ele><time>2014-4-20T20:10:10Z</time></trkpt>
<trkpt lat="46.09066590" lon="6.44347390"><ele></ele><time>2014-4-20T20:10:13Z</time></trkpt>
<trkpt lat="46.09048070" lon="6.44346000"><ele></ele><time>2014-4-20T20:10:16Z</time></trkpt>
<trkpt lat="46.09037950" lon="6.44346000"><ele></ele><time>2014-4-20T20:10:19Z</time></trkpt>
<trkpt lat="46.09021220" lon="6.44336490"><ele></ele><time>2014-4-20T20:10:22Z</time></trkpt>
<trkpt lat="46.09011560" lon="6.44326840"><ele></ele><time>2014-4-20T20:10:25Z</time></trkpt>
<trkpt lat="46.08984240" lon="6.44308930"><ele></ele><time>2014-4-20T20:10:28Z</time></trkpt>
<trkpt lat="46.08972290" lon="6.44307740"><ele></ele><time>2014-4-20T20:10:31Z</time></trkpt>
<trkpt lat="46.08952540" lon="6.44312670"><ele></ele><time>2014-4-20T20:10:34Z</time></trkpt>
<trkpt lat="46.08939440" lon="6.44323580"><ele></ele><time>2014-4-20T20:10:37Z</time></trkpt>
<trkpt lat="46.08901980" lon="6.44343850"><ele></ele><time>2014-4-20T20:10:40Z</time></trkpt>
<trkpt lat="46.08896170" lon="6.44355480"><ele></ele><time>2014-4-20T20:10:43Z</time></trkpt>
<trkpt lat="46.08896170" lon="6.44355480"><ele></ele><time>2014-4-20T20:10:46Z</time></trkpt>
<trkpt lat="46.08897690" lon="6.44330980"><ele></ele><time>2014-4-20T20:10:49Z</time></trkpt>
<trkpt lat="46.08892060" lon="6.44363690"><ele></ele><time>2014-4-20T20:10:52Z</time></trkpt>
<trkpt lat="46.08889540" lon="6.44371270"><ele></ele><time>2014-4-20T20:10:55Z</time></trkpt>
<trkpt lat="46.08889540" lon="6.44371270"><ele></ele><time>2014-4-20T20:10:58Z</time></trkpt>
<trkpt lat="46.08886960" lon="6.44405520"><ele></ele><time>2014-4-20T20:11:1Z</time></trkpt>
<trkpt lat="46.08886960" lon="6.44405520"><ele></ele><time>2014-4-20T20:11:4Z</time></trkpt>
<trkpt lat="46.08886960" lon="6.44405520"><ele></ele><time>2014-4-20T20:11:7Z</time></trkpt>
<trkpt lat="46.08888240" lon="6.44375860"><ele></ele><time>2014-4-20T20:11:10Z</time></trkpt>
<trkpt lat="46.08899780" lon="6.44348240"><ele></ele><time>2014-4-20T20:11:13Z</time></trkpt>
<trkpt lat="46.08890850" lon="6.44322440"><ele></ele><time>2014-4-20T20:11:16Z</time></trkpt>
<trkpt lat="46.08869910" lon="6.44327800"><ele></ele><time>2014-4-20T20:11:19Z</time></trkpt>
<trkpt lat="46.08859550" lon="6.44350410"><ele></ele><time>2014-4-20T20:11:22Z</time></trkpt>
<trkpt lat="46.08850480" lon="6.44397480"><ele></ele><time>2014-4-20T20:11:25Z</time></trkpt>
<trkpt lat="46.08847600" lon="6.44420910"><ele></ele><time>2014-4-20T20:11:28Z</time></trkpt>
<trkpt lat="46.08825000" lon="6.44451480"><ele></ele><time>2014-4-20T20:11:31Z</time></trkpt>
<trkpt lat="46.08821750" lon="6.44454430"><ele></ele><time>2014-4-20T20:11:34Z</time></trkpt>
<trkpt lat="46.08812120" lon="6.44477540"><ele></ele><time>2014-4-20T20:11:37Z</time></trkpt>
<trkpt lat="46.08813340" lon="6.44500920"><ele></ele><time>2014-4-20T20:11:40Z</time></trkpt>
<trkpt lat="46.08805740" lon="6.44549530"><ele></ele><time>2014-4-20T20:11:43Z</time></trkpt>
<trkpt lat="46.08798770" lon="6.44580000"><ele></ele><time>2014-4-20T20:11:46Z</time></trkpt>
<trkpt lat="46.08786980" lon="6.44603380"><ele></ele><time>2014-4-20T20:11:49Z</time></trkpt>
<trkpt lat="46.08776990" lon="6.44609370"><ele></ele><time>2014-4-20T20:11:52Z</time></trkpt>
<trkpt lat="46.08760470" lon="6.44645420"><ele></ele><time>2014-4-20T20:11:55Z</time></trkpt>
<trkpt lat="46.08755480" lon="6.44659930"><ele></ele><time>2014-4-20T20:11:58Z</time></trkpt>
<trkpt lat="46.08751980" lon="6.44670050"><ele></ele><time>2014-4-20T20:12:1Z</time></trkpt>
<trkpt lat="46.08745340" lon="6.44700580"><ele></ele><time>2014-4-20T20:12:4Z</time></trkpt>
<trkpt lat="46.08745340" lon="6.44732070"><ele></ele><time>2014-4-20T20:12:7Z</time></trkpt>
<trkpt lat="46.08745340" lon="6.44740440"><ele></ele><time>2014-4-20T20:12:10Z</time></trkpt>
<trkpt lat="46.08759030" lon="6.44783150"><ele></ele><time>2014-4-20T20:12:13Z</time></trkpt>
<trkpt lat="46.08766170" lon="6.44792070"><ele></ele><time>2014-4-20T20:12:16Z</time></trkpt>
<trkpt lat="46.08786040" lon="6.44826400"><ele></ele><time>2014-4-20T20:12:19Z</time></trkpt>
<trkpt lat="46.08790400" lon="6.44841670"><ele></ele><time>2014-4-20T20:12:22Z</time></trkpt>
<trkpt lat="46.08789760" lon="6.44868740"><ele></ele><time>2014-4-20T20:12:25Z</time></trkpt>
<trkpt lat="46.08775850" lon="6.44904270"><ele></ele><time>2014-4-20T20:12:28Z</time></trkpt>
<trkpt lat="46.08748810" lon="6.44944840"><ele></ele><time>2014-4-20T20:12:31Z</time></trkpt>
<trkpt lat="46.08735660" lon="6.44976780"><ele></ele><time>2014-4-20T20:12:34Z</time></trkpt>
<trkpt lat="46.08736150" lon="6.44978710"><ele></ele><time>2014-4-20T20:12:37Z</time></trkpt>
<trkpt lat="46.08736690" lon="6.44980910"><ele></ele><time>2014-4-20T20:12:40Z</time></trkpt>
<trkpt lat="46.08747710" lon="6.44989820"><ele></ele><time>2014-4-20T20:12:43Z</time></trkpt>
<trkpt lat="46.08767540" lon="6.45009180"><ele></ele><time>2014-4-20T20:12:46Z</time></trkpt>
<trkpt lat="46.08772780" lon="6.45017690"><ele></ele><time>2014-4-20T20:12:49Z</time></trkpt>
<trkpt lat="46.08773870" lon="6.45031090"><ele></ele><time>2014-4-20T20:12:52Z</time></trkpt>
<trkpt lat="46.08773360" lon="6.45032760"><ele></ele><time>2014-4-20T20:12:55Z</time></trkpt>
<trkpt lat="46.08764710" lon="6.45060870"><ele></ele><time>2014-4-20T20:12:58Z</time></trkpt>
<trkpt lat="46.08764710" lon="6.45060870"><ele></ele><time>2014-4-20T20:13:1Z</time></trkpt>
<trkpt lat="46.08757280" lon="6.45088510"><ele></ele><time>2014-4-20T20:13:4Z</time></trkpt>
<trkpt lat="46.08750870" lon="6.45114330"><ele></ele><time>2014-4-20T20:13:7Z</time></trkpt>
<trkpt lat="46.08749010" lon="6.45124650"><ele></ele><time>2014-4-20T20:13:10Z</time></trkpt>
<trkpt lat="46.08748390" lon="6.45130810"><ele></ele><time>2014-4-20T20:13:13Z</time></trkpt>
<trkpt lat="46.08747480" lon="6.45148230"><ele></ele><time>2014-4-20T20:13:16Z</time></trkpt>
<trkpt lat="46.08747480" lon="6.45148230"><ele></ele><time>2014-4-20T20:13:19Z</time></trkpt>
<trkpt lat="46.08747480" lon="6.45148230"><ele></ele><time>2014-4-20T20:13:22Z</time></trkpt>
<trkpt lat="46.08747480" lon="6.45148230"><ele></ele><time>2014-4-20T20:13:25Z</time></trkpt>
<trkpt lat="46.08747480" lon="6.45148230"><ele></ele><time>2014-4-20T20:13:28Z</time></trkpt>
<trkpt lat="46.08779700" lon="6.45262590"><ele></ele><time>2014-4-20T20:13:31Z</time></trkpt>
<trkpt lat="46.08781770" lon="6.45283310"><ele></ele><time>2014-4-20T20:13:34Z</time></trkpt>
<trkpt lat="46.08781770" lon="6.45283310"><ele></ele><time>2014-4-20T20:13:37Z</time></trkpt>
<trkpt lat="46.08781770" lon="6.45283310"><ele></ele><time>2014-4-20T20:13:40Z</time></trkpt>
<trkpt lat="46.08781770" lon="6.45283310"><ele></ele><time>2014-4-20T20:13:43Z</time></trkpt>
<trkpt lat="46.08781770" lon="6.45283310"><ele></ele><time>2014-4-20T20:13:46Z</time></trkpt>
<trkpt lat="46.08807930" lon="6.45366680"><ele></ele><time>2014-4-20T20:13:49Z</time></trkpt>
<trkpt lat="46.08807930" lon="6.45366680"><ele></ele><time>2014-4-20T20:13:52Z</time></trkpt>
<trkpt lat="46.08807930" lon="6.45366680"><ele></ele><time>2014-4-20T20:13:55Z</time></trkpt>
<trkpt lat="46.08827430" lon="6.45409260"><ele></ele><time>2014-4-20T20:13:58Z</time></trkpt>
<trkpt lat="46.08827430" lon="6.45409260"><ele></ele><time>2014-4-20T20:14:1Z</time></trkpt>
<trkpt lat="46.08827430" lon="6.45409260"><ele></ele><time>2014-4-20T20:14:4Z</time></trkpt>
<trkpt lat="46.08827430" lon="6.45409260"><ele></ele><time>2014-4-20T20:14:7Z</time></trkpt>
<trkpt lat="46.08827430" lon="6.45409260"><ele></ele><time>2014-4-20T20:14:10Z</time></trkpt>
<trkpt lat="46.08827430" lon="6.45409260"><ele></ele><time>2014-4-20T20:14:13Z</time></trkpt>
<trkpt lat="46.08827430" lon="6.45409260"><ele></ele><time>2014-4-20T20:14:16Z</time></trkpt>
<trkpt lat="46.08827430" lon="6.45409260"><ele></ele><time>2014-4-20T20:14:19Z</time></trkpt>
<trkpt lat="46.08827430" lon="6.45409260"><ele></ele><time>2014-4-20T20:14:22Z</time></trkpt>
<trkpt lat="46.08861870" lon="6.45529190"><ele></ele><time>2014-4-20T20:14:25Z</time></trkpt>
<trkpt lat="46.08861870" lon="6.45529190"><ele></ele><time>2014-4-20T20:14:28Z</time></trkpt>
<trkpt lat="46.08861870" lon="6.45529190"><ele></ele><time>2014-4-20T20:14:31Z</time></trkpt>
<trkpt lat="46.08861870" lon="6.45529190"><ele></ele><time>2014-4-20T20:14:34Z</time></trkpt>
<trkpt lat="46.08861870" lon="6.45529190"><ele></ele><time>2014-4-20T20:14:37Z</time></trkpt>
<trkpt lat="46.08861870" lon="6.45529190"><ele></ele><time>2014-4-20T20:14:40Z</time></trkpt>
<trkpt lat="46.08861870" lon="6.45529190"><ele></ele><time>2014-4-20T20:14:43Z</time></trkpt>
<trkpt lat="46.08861870" lon="6.45529190"><ele></ele><time>2014-4-20T20:14:46Z</time></trkpt>
<trkpt lat="46.08861870" lon="6.45529190"><ele></ele><time>2014-4-20T20:14:49Z</time></trkpt>
<trkpt lat="46.08898520" lon="6.45647530"><ele></ele><time>2014-4-20T20:14:52Z</time></trkpt>
<trkpt lat="46.08898520" lon="6.45647530"><ele></ele><time>2014-4-20T20:14:55Z</time></trkpt>
<trkpt lat="46.08898520" lon="6.45647530"><ele></ele><time>2014-4-20T20:14:58Z</time></trkpt>
<trkpt lat="46.08898520" lon="6.45647530"><ele></ele><time>2014-4-20T20:15:1Z</time></trkpt>
<trkpt lat="46.08898520" lon="6.45647530"><ele></ele><time>2014-4-20T20:15:4Z</time></trkpt>
<trkpt lat="46.08898520" lon="6.45647530"><ele></ele><time>2014-4-20T20:15:7Z</time></trkpt>
<trkpt lat="46.08911730" lon="6.45682870"><ele></ele><time>2014-4-20T20:15:10Z</time></trkpt>
<trkpt lat="46.08911730" lon="6.45682870"><ele></ele><time>2014-4-20T20:15:13Z</time></trkpt>
<trkpt lat="46.08918880" lon="6.45696420"><ele></ele><time>2014-4-20T20:15:16Z</time></trkpt>
<trkpt lat="46.08934760" lon="6.45726510"><ele></ele><time>2014-4-20T20:15:19Z</time></trkpt>
<trkpt lat="46.08936980" lon="6.45730720"><ele></ele><time>2014-4-20T20:15:22Z</time></trkpt>
<trkpt lat="46.08936980" lon="6.45730720"><ele></ele><time>2014-4-20T20:15:25Z</time></trkpt>
<trkpt lat="46.08936980" lon="6.45730720"><ele></ele><time>2014-4-20T20:15:28Z</time></trkpt>
<trkpt lat="46.08936980" lon="6.45730720"><ele></ele><time>2014-4-20T20:15:31Z</time></trkpt>
<trkpt lat="46.08960620" lon="6.45771840"><ele></ele><time>2014-4-20T20:15:34Z</time></trkpt>
<trkpt lat="46.08960620" lon="6.45771840"><ele></ele><time>2014-4-20T20:15:37Z</time></trkpt>
<trkpt lat="46.08960620" lon="6.45771840"><ele></ele><time>2014-4-20T20:15:40Z</time></trkpt>
<trkpt lat="46.08991770" lon="6.45825920"><ele></ele><time>2014-4-20T20:15:43Z</time></trkpt>
<trkpt lat="46.08953760" lon="6.45891910"><ele></ele><time>2014-4-20T20:15:46Z</time></trkpt>
<trkpt lat="46.08940430" lon="6.45913410"><ele></ele><time>2014-4-20T20:15:49Z</time></trkpt>
<trkpt lat="46.08890760" lon="6.45947750"><ele></ele><time>2014-4-20T20:15:52Z</time></trkpt>
<trkpt lat="46.08855440" lon="6.45975100"><ele></ele><time>2014-4-20T20:15:55Z</time></trkpt>
<trkpt lat="46.08855440" lon="6.45975100"><ele></ele><time>2014-4-20T20:15:58Z</time></trkpt>
<trkpt lat="46.08855440" lon="6.45975100"><ele></ele><time>2014-4-20T20:16:1Z</time></trkpt>
<trkpt lat="46.08855440" lon="6.45975100"><ele></ele><time>2014-4-20T20:16:4Z</time></trkpt>
<trkpt lat="46.08855440" lon="6.45975100"><ele></ele><time>2014-4-20T20:16:7Z</time></trkpt>
<trkpt lat="46.08820710" lon="6.46081200"><ele></ele><time>2014-4-20T20:16:10Z</time></trkpt>
<trkpt lat="46.08805870" lon="6.46152950"><ele></ele><time>2014-4-20T20:16:13Z</time></trkpt>
<trkpt lat="46.08801120" lon="6.46183350"><ele></ele><time>2014-4-20T20:16:16Z</time></trkpt>
<trkpt lat="46.08793110" lon="6.46207380"><ele></ele><time>2014-4-20T20:16:19Z</time></trkpt>
<trkpt lat="46.08762350" lon="6.46271380"><ele></ele><time>2014-4-20T20:16:22Z</time></trkpt>
<trkpt lat="46.08758550" lon="6.46279340"><ele></ele><time>2014-4-20T20:16:25Z</time></trkpt>
<trkpt lat="46.08741900" lon="6.46318660"><ele></ele><time>2014-4-20T20:16:28Z</time></trkpt>
<trkpt lat="46.08734610" lon="6.46395460"><ele></ele><time>2014-4-20T20:16:31Z</time></trkpt>
<trkpt lat="46.08734610" lon="6.46404530"><ele></ele><time>2014-4-20T20:16:34Z</time></trkpt>
<trkpt lat="46.08736060" lon="6.46421790"><ele></ele><time>2014-4-20T20:16:37Z</time></trkpt>
<trkpt lat="46.08747480" lon="6.46519900"><ele></ele><time>2014-4-20T20:16:40Z</time></trkpt>
<trkpt lat="46.08745070" lon="6.46582580"><ele></ele><time>2014-4-20T20:16:43Z</time></trkpt>
<trkpt lat="46.08745070" lon="6.46582580"><ele></ele><time>2014-4-20T20:16:46Z</time></trkpt>
<trkpt lat="46.08745070" lon="6.46582580"><ele></ele><time>2014-4-20T20:16:49Z</time></trkpt>
<trkpt lat="46.08742000" lon="6.46599280"><ele></ele><time>2014-4-20T20:16:52Z</time></trkpt>
<trkpt lat="46.08741600" lon="6.46600760"><ele></ele><time>2014-4-20T20:16:55Z</time></trkpt>
<trkpt lat="46.08736690" lon="6.46619340"><ele></ele><time>2014-4-20T20:16:58Z</time></trkpt>
<trkpt lat="46.08728940" lon="6.46648600"><ele></ele><time>2014-4-20T20:17:1Z</time></trkpt>
<trkpt lat="46.08724370" lon="6.46665890"><ele></ele><time>2014-4-20T20:17:4Z</time></trkpt>
<trkpt lat="46.08721820" lon="6.46672870"><ele></ele><time>2014-4-20T20:17:7Z</time></trkpt>
<trkpt lat="46.08702210" lon="6.46725860"><ele></ele><time>2014-4-20T20:17:10Z</time></trkpt>
<trkpt lat="46.08701040" lon="6.46730920"><ele></ele><time>2014-4-20T20:17:13Z</time></trkpt>
<trkpt lat="46.08616590" lon="6.46749260"><ele></ele><time>2014-4-20T20:17:16Z</time></trkpt>
<trkpt lat="46.08676500" lon="6.46765830"><ele></ele><time>2014-4-20T20:17:19Z</time></trkpt>
<trkpt lat="46.08656280" lon="6.46776460"><ele></ele><time>2014-4-20T20:17:22Z</time></trkpt>
<trkpt lat="46.08646860" lon="6.46782540"><ele></ele><time>2014-4-20T20:17:25Z</time></trkpt>
<trkpt lat="46.08614250" lon="6.46763260"><ele></ele><time>2014-4-20T20:17:28Z</time></trkpt>
<trkpt lat="46.08615290" lon="6.46757040"><ele></ele><time>2014-4-20T20:17:31Z</time></trkpt>
<trkpt lat="46.08616590" lon="6.46749260"><ele></ele><time>2014-4-20T20:17:34Z</time></trkpt>
<trkpt lat="46.08613800" lon="6.46766000"><ele></ele><time>2014-4-20T20:17:37Z</time></trkpt>
<trkpt lat="46.08612980" lon="6.46770900"><ele></ele><time>2014-4-20T20:17:40Z</time></trkpt>
<trkpt lat="46.08607860" lon="6.46801640"><ele></ele><time>2014-4-20T20:17:43Z</time></trkpt>
<trkpt lat="46.08605860" lon="6.46817430"><ele></ele><time>2014-4-20T20:17:46Z</time></trkpt>
<trkpt lat="46.08622100" lon="6.46890000"><ele></ele><time>2014-4-20T20:17:49Z</time></trkpt>
<trkpt lat="46.08631900" lon="6.46921880"><ele></ele><time>2014-4-20T20:17:52Z</time></trkpt>
<trkpt lat="46.08635250" lon="6.46932730"><ele></ele><time>2014-4-20T20:17:55Z</time></trkpt>
<trkpt lat="46.08639050" lon="6.47013810"><ele></ele><time>2014-4-20T20:17:58Z</time></trkpt>
<trkpt lat="46.08641240" lon="6.47024380"><ele></ele><time>2014-4-20T20:18:1Z</time></trkpt>
<trkpt lat="46.08644490" lon="6.47060650"><ele></ele><time>2014-4-20T20:18:4Z</time></trkpt>
<trkpt lat="46.08642910" lon="6.47098690"><ele></ele><time>2014-4-20T20:18:7Z</time></trkpt>
<trkpt lat="46.08642390" lon="6.47207020"><ele></ele><time>2014-4-20T20:18:10Z</time></trkpt>
<trkpt lat="46.08649860" lon="6.47282580"><ele></ele><time>2014-4-20T20:18:13Z</time></trkpt>
<trkpt lat="46.08649860" lon="6.47282580"><ele></ele><time>2014-4-20T20:18:16Z</time></trkpt>
<trkpt lat="46.08663610" lon="6.47379020"><ele></ele><time>2014-4-20T20:18:19Z</time></trkpt>
<trkpt lat="46.08675520" lon="6.47424290"><ele></ele><time>2014-4-20T20:18:22Z</time></trkpt>
<trkpt lat="46.08697290" lon="6.47487670"><ele></ele><time>2014-4-20T20:18:25Z</time></trkpt>
<trkpt lat="46.08700640" lon="6.47521060"><ele></ele><time>2014-4-20T20:18:28Z</time></trkpt>
<trkpt lat="46.08669660" lon="6.47549260"><ele></ele><time>2014-4-20T20:18:31Z</time></trkpt>
<trkpt lat="46.08662390" lon="6.47548690"><ele></ele><time>2014-4-20T20:18:34Z</time></trkpt>
<trkpt lat="46.08663100" lon="6.47550630"><ele></ele><time>2014-4-20T20:18:37Z</time></trkpt>
<trkpt lat="46.08661220" lon="6.47550810"><ele></ele><time>2014-4-20T20:18:40Z</time></trkpt>
<trkpt lat="46.08647910" lon="6.47543130"><ele></ele><time>2014-4-20T20:18:43Z</time></trkpt>
<trkpt lat="46.08646670" lon="6.47540150"><ele></ele><time>2014-4-20T20:18:46Z</time></trkpt>
<trkpt lat="46.08634170" lon="6.47526820"><ele></ele><time>2014-4-20T20:18:49Z</time></trkpt>
<trkpt lat="46.08635980" lon="6.47513230"><ele></ele><time>2014-4-20T20:18:52Z</time></trkpt>
<trkpt lat="46.08630700" lon="6.47507940"><ele></ele><time>2014-4-20T20:18:55Z</time></trkpt>
<trkpt lat="46.08604510" lon="6.47491740"><ele></ele><time>2014-4-20T20:18:58Z</time></trkpt>
<trkpt lat="46.08589840" lon="6.47485280"><ele></ele><time>2014-4-20T20:19:1Z</time></trkpt>
<trkpt lat="46.08577010" lon="6.47480760"><ele></ele><time>2014-4-20T20:19:4Z</time></trkpt>
<trkpt lat="46.08555860" lon="6.47471220"><ele></ele><time>2014-4-20T20:19:7Z</time></trkpt>
<trkpt lat="46.08492920" lon="6.47512330"><ele></ele><time>2014-4-20T20:19:10Z</time></trkpt>
<trkpt lat="46.08492920" lon="6.47512330"><ele></ele><time>2014-4-20T20:19:13Z</time></trkpt>
<trkpt lat="46.08492720" lon="6.47510370"><ele></ele><time>2014-4-20T20:19:16Z</time></trkpt>
<trkpt lat="46.08492140" lon="6.47504570"><ele></ele><time>2014-4-20T20:19:19Z</time></trkpt>
<trkpt lat="46.08492140" lon="6.47504570"><ele></ele><time>2014-4-20T20:19:22Z</time></trkpt>
<trkpt lat="46.08492140" lon="6.47504570"><ele></ele><time>2014-4-20T20:19:25Z</time></trkpt>
<trkpt lat="46.08492140" lon="6.47504570"><ele></ele><time>2014-4-20T20:19:28Z</time></trkpt>
<trkpt lat="46.08504060" lon="6.47571020"><ele></ele><time>2014-4-20T20:19:31Z</time></trkpt>
<trkpt lat="46.08505010" lon="6.47580270"><ele></ele><time>2014-4-20T20:19:34Z</time></trkpt>
<trkpt lat="46.08577050" lon="6.47692410"><ele></ele><time>2014-4-20T20:19:37Z</time></trkpt>
<trkpt lat="46.08574130" lon="6.47723860"><ele></ele><time>2014-4-20T20:19:40Z</time></trkpt>
<trkpt lat="46.08570410" lon="6.47763880"><ele></ele><time>2014-4-20T20:19:43Z</time></trkpt>
<trkpt lat="46.08493400" lon="6.47785390"><ele></ele><time>2014-4-20T20:19:46Z</time></trkpt>
<trkpt lat="46.08493050" lon="6.47790870"><ele></ele><time>2014-4-20T20:19:49Z</time></trkpt>
<trkpt lat="46.08494630" lon="6.47886560"><ele></ele><time>2014-4-20T20:19:52Z</time></trkpt>
<trkpt lat="46.08528610" lon="6.47912260"><ele></ele><time>2014-4-20T20:19:55Z</time></trkpt>
<trkpt lat="46.08528610" lon="6.47912260"><ele></ele><time>2014-4-20T20:19:58Z</time></trkpt>
<trkpt lat="46.08528610" lon="6.47912260"><ele></ele><time>2014-4-20T20:20:1Z</time></trkpt>
<trkpt lat="46.08545390" lon="6.47898150"><ele></ele><time>2014-4-20T20:20:4Z</time></trkpt>
<trkpt lat="46.08537460" lon="6.47899290"><ele></ele><time>2014-4-20T20:20:7Z</time></trkpt>
<trkpt lat="46.08524540" lon="6.47899050"><ele></ele><time>2014-4-20T20:20:10Z</time></trkpt>
<trkpt lat="46.08518390" lon="6.47901640"><ele></ele><time>2014-4-20T20:20:13Z</time></trkpt>
<trkpt lat="46.08512840" lon="6.47911360"><ele></ele><time>2014-4-20T20:20:16Z</time></trkpt>
<trkpt lat="46.08518400" lon="6.48029500"><ele></ele><time>2014-4-20T20:20:19Z</time></trkpt>
<trkpt lat="46.08526840" lon="6.48121390"><ele></ele><time>2014-4-20T20:20:22Z</time></trkpt>
<trkpt lat="46.08535040" lon="6.48143250"><ele></ele><time>2014-4-20T20:20:25Z</time></trkpt>
<trkpt lat="46.08554350" lon="6.48187210"><ele></ele><time>2014-4-20T20:20:28Z</time></trkpt>
<trkpt lat="46.08559480" lon="6.48198290"><ele></ele><time>2014-4-20T20:20:31Z</time></trkpt>
<trkpt lat="46.08575200" lon="6.48232270"><ele></ele><time>2014-4-20T20:20:34Z</time></trkpt>
<trkpt lat="46.08578960" lon="6.48240400"><ele></ele><time>2014-4-20T20:20:37Z</time></trkpt>
<trkpt lat="46.08596360" lon="6.48278010"><ele></ele><time>2014-4-20T20:20:40Z</time></trkpt>
<trkpt lat="46.08621670" lon="6.48330640"><ele></ele><time>2014-4-20T20:20:43Z</time></trkpt>
<trkpt lat="46.08639090" lon="6.48355790"><ele></ele><time>2014-4-20T20:20:46Z</time></trkpt>
<trkpt lat="46.08639090" lon="6.48355790"><ele></ele><time>2014-4-20T20:20:49Z</time></trkpt>
<trkpt lat="46.08671480" lon="6.48402580"><ele></ele><time>2014-4-20T20:20:52Z</time></trkpt>
<trkpt lat="46.08732340" lon="6.48480770"><ele></ele><time>2014-4-20T20:20:55Z</time></trkpt>
<trkpt lat="46.08724470" lon="6.48517720"><ele></ele><time>2014-4-20T20:20:58Z</time></trkpt>
<trkpt lat="46.08678550" lon="6.48548870"><ele></ele><time>2014-4-20T20:21:1Z</time></trkpt>
<trkpt lat="46.08646420" lon="6.48632230"><ele></ele><time>2014-4-20T20:21:4Z</time></trkpt>
<trkpt lat="46.08644750" lon="6.48636290"><ele></ele><time>2014-4-20T20:21:7Z</time></trkpt>
<trkpt lat="46.08609210" lon="6.48654700"><ele></ele><time>2014-4-20T20:21:10Z</time></trkpt>
<trkpt lat="46.08597590" lon="6.48652860"><ele></ele><time>2014-4-20T20:21:13Z</time></trkpt>
<trkpt lat="46.08573930" lon="6.48638550"><ele></ele><time>2014-4-20T20:21:16Z</time></trkpt>
<trkpt lat="46.08569380" lon="6.48633240"><ele></ele><time>2014-4-20T20:21:19Z</time></trkpt>
<trkpt lat="46.08579840" lon="6.48645440"><ele></ele><time>2014-4-20T20:21:22Z</time></trkpt>
<trkpt lat="46.08603720" lon="6.48654700"><ele></ele><time>2014-4-20T20:21:25Z</time></trkpt>
<trkpt lat="46.08608890" lon="6.48654700"><ele></ele><time>2014-4-20T20:21:28Z</time></trkpt>
<trkpt lat="46.08630870" lon="6.48654700"><ele></ele><time>2014-4-20T20:21:31Z</time></trkpt>
<trkpt lat="46.08658030" lon="6.48730840"><ele></ele><time>2014-4-20T20:21:34Z</time></trkpt>
<trkpt lat="46.08676540" lon="6.48729810"><ele></ele><time>2014-4-20T20:21:37Z</time></trkpt>
<trkpt lat="46.08711430" lon="6.48749420"><ele></ele><time>2014-4-20T20:21:40Z</time></trkpt>
<trkpt lat="46.08730950" lon="6.48763800"><ele></ele><time>2014-4-20T20:21:43Z</time></trkpt>
<trkpt lat="46.08749760" lon="6.48779290"><ele></ele><time>2014-4-20T20:21:46Z</time></trkpt>
<trkpt lat="46.08794690" lon="6.48828510"><ele></ele><time>2014-4-20T20:21:49Z</time></trkpt>
<trkpt lat="46.08803090" lon="6.48857040"><ele></ele><time>2014-4-20T20:21:52Z</time></trkpt>
<trkpt lat="46.08799010" lon="6.48871290"><ele></ele><time>2014-4-20T20:21:55Z</time></trkpt>
<trkpt lat="46.08770930" lon="6.48912960"><ele></ele><time>2014-4-20T20:21:58Z</time></trkpt>
<trkpt lat="46.08766510" lon="6.48934560"><ele></ele><time>2014-4-20T20:22:1Z</time></trkpt>
<trkpt lat="46.08762480" lon="6.48947460"><ele></ele><time>2014-4-20T20:22:4Z</time></trkpt>
<trkpt lat="46.08757920" lon="6.48962050"><ele></ele><time>2014-4-20T20:22:7Z</time></trkpt>
<trkpt lat="46.08746170" lon="6.49006090"><ele></ele><time>2014-4-20T20:22:10Z</time></trkpt>
<trkpt lat="46.08743190" lon="6.49046450"><ele></ele><time>2014-4-20T20:22:13Z</time></trkpt>
<trkpt lat="46.08733780" lon="6.49085830"><ele></ele><time>2014-4-20T20:22:16Z</time></trkpt>
<trkpt lat="46.08734050" lon="6.49132630"><ele></ele><time>2014-4-20T20:22:19Z</time></trkpt>
<trkpt lat="46.08751500" lon="6.49163680"><ele></ele><time>2014-4-20T20:22:22Z</time></trkpt>
<trkpt lat="46.08787970" lon="6.49212240"><ele></ele><time>2014-4-20T20:22:25Z</time></trkpt>
<trkpt lat="46.08826050" lon="6.49240120"><ele></ele><time>2014-4-20T20:22:28Z</time></trkpt>
<trkpt lat="46.08845140" lon="6.49247210"><ele></ele><time>2014-4-20T20:22:31Z</time></trkpt>
<trkpt lat="46.08888520" lon="6.49273950"><ele></ele><time>2014-4-20T20:22:34Z</time></trkpt>
<trkpt lat="46.08898850" lon="6.49291780"><ele></ele><time>2014-4-20T20:22:37Z</time></trkpt>
<trkpt lat="46.08898900" lon="6.49357610"><ele></ele><time>2014-4-20T20:22:40Z</time></trkpt>
<trkpt lat="46.08895710" lon="6.49368900"><ele></ele><time>2014-4-20T20:22:43Z</time></trkpt>
<trkpt lat="46.08885950" lon="6.49423160"><ele></ele><time>2014-4-20T20:22:46Z</time></trkpt>
<trkpt lat="46.08889470" lon="6.49437220"><ele></ele><time>2014-4-20T20:22:49Z</time></trkpt>
<trkpt lat="46.08905720" lon="6.49475860"><ele></ele><time>2014-4-20T20:22:52Z</time></trkpt>
<trkpt lat="46.08960410" lon="6.49507630"><ele></ele><time>2014-4-20T20:22:55Z</time></trkpt>
<trkpt lat="46.08980150" lon="6.49516450"><ele></ele><time>2014-4-20T20:22:58Z</time></trkpt>
<trkpt lat="46.08991930" lon="6.49540050"><ele></ele><time>2014-4-20T20:23:1Z</time></trkpt>
<trkpt lat="46.08992100" lon="6.49551450"><ele></ele><time>2014-4-20T20:23:4Z</time></trkpt>
<trkpt lat="46.08992100" lon="6.49569920"><ele></ele><time>2014-4-20T20:23:7Z</time></trkpt>
<trkpt lat="46.08988510" lon="6.49619700"><ele></ele><time>2014-4-20T20:23:10Z</time></trkpt>
<trkpt lat="46.08987810" lon="6.49629610"><ele></ele><time>2014-4-20T20:23:13Z</time></trkpt>
<trkpt lat="46.08996110" lon="6.49683200"><ele></ele><time>2014-4-20T20:23:16Z</time></trkpt>
<trkpt lat="46.09000280" lon="6.49704090"><ele></ele><time>2014-4-20T20:23:19Z</time></trkpt>
<trkpt lat="46.09016010" lon="6.49768660"><ele></ele><time>2014-4-20T20:23:22Z</time></trkpt>
<trkpt lat="46.09040620" lon="6.49887070"><ele></ele><time>2014-4-20T20:23:25Z</time></trkpt>
<trkpt lat="46.09046550" lon="6.49901420"><ele></ele><time>2014-4-20T20:23:28Z</time></trkpt>
<trkpt lat="46.09062900" lon="6.49938890"><ele></ele><time>2014-4-20T20:23:31Z</time></trkpt>
<trkpt lat="46.09069350" lon="6.49961470"><ele></ele><time>2014-4-20T20:23:34Z</time></trkpt>
<trkpt lat="46.09073640" lon="6.50005480"><ele></ele><time>2014-4-20T20:23:37Z</time></trkpt>
<trkpt lat="46.09071220" lon="6.50028190"><ele></ele><time>2014-4-20T20:23:40Z</time></trkpt>
<trkpt lat="46.09034400" lon="6.50055330"><ele></ele><time>2014-4-20T20:23:43Z</time></trkpt>
<trkpt lat="46.09047090" lon="6.50105560"><ele></ele><time>2014-4-20T20:23:46Z</time></trkpt>
<trkpt lat="46.09051580" lon="6.50116390"><ele></ele><time>2014-4-20T20:23:49Z</time></trkpt>
<trkpt lat="46.09070210" lon="6.50161330"><ele></ele><time>2014-4-20T20:23:52Z</time></trkpt>
<trkpt lat="46.09116180" lon="6.50278770"><ele></ele><time>2014-4-20T20:23:55Z</time></trkpt>
<trkpt lat="46.09162490" lon="6.50392170"><ele></ele><time>2014-4-20T20:23:58Z</time></trkpt>
<trkpt lat="46.09210270" lon="6.50488230"><ele></ele><time>2014-4-20T20:24:1Z</time></trkpt>
<trkpt lat="46.09222380" lon="6.50502720"><ele></ele><time>2014-4-20T20:24:4Z</time></trkpt>
<trkpt lat="46.09229520" lon="6.50508240"><ele></ele><time>2014-4-20T20:24:7Z</time></trkpt>
<trkpt lat="46.09306590" lon="6.50572070"><ele></ele><time>2014-4-20T20:24:10Z</time></trkpt>
<trkpt lat="46.09354830" lon="6.50632610"><ele></ele><time>2014-4-20T20:24:13Z</time></trkpt>
<trkpt lat="46.09398650" lon="6.50655600"><ele></ele><time>2014-4-20T20:24:16Z</time></trkpt>
<trkpt lat="46.09401490" lon="6.50656010"><ele></ele><time>2014-4-20T20:24:19Z</time></trkpt>
<trkpt lat="46.09401780" lon="6.50673870"><ele></ele><time>2014-4-20T20:24:22Z</time></trkpt>
<trkpt lat="46.09388320" lon="6.50724250"><ele></ele><time>2014-4-20T20:24:25Z</time></trkpt>
<trkpt lat="46.09401090" lon="6.50748220"><ele></ele><time>2014-4-20T20:24:28Z</time></trkpt>
<trkpt lat="46.09444580" lon="6.50782770"><ele></ele><time>2014-4-20T20:24:31Z</time></trkpt>
<trkpt lat="46.09538350" lon="6.50853490"><ele></ele><time>2014-4-20T20:24:34Z</time></trkpt>
<trkpt lat="46.09542920" lon="6.50856890"><ele></ele><time>2014-4-20T20:24:37Z</time></trkpt>
<trkpt lat="46.09648980" lon="6.50942420"><ele></ele><time>2014-4-20T20:24:40Z</time></trkpt>
<trkpt lat="46.09756030" lon="6.51029090"><ele></ele><time>2014-4-20T20:24:43Z</time></trkpt>
<trkpt lat="46.09855900" lon="6.51082400"><ele></ele><time>2014-4-20T20:24:46Z</time></trkpt>
<trkpt lat="46.09983270" lon="6.51095460"><ele></ele><time>2014-4-20T20:24:49Z</time></trkpt>
<trkpt lat="46.10119220" lon="6.51102470"><ele></ele><time>2014-4-20T20:24:52Z</time></trkpt>
<trkpt lat="46.10198100" lon="6.51079060"><ele></ele><time>2014-4-20T20:24:55Z</time></trkpt>
<trkpt lat="46.10283280" lon="6.50996850"><ele></ele><time>2014-4-20T20:24:58Z</time></trkpt>
<trkpt lat="46.10359660" lon="6.50863380"><ele></ele><time>2014-4-20T20:25:1Z</time></trkpt>
<trkpt lat="46.10412250" lon="6.50733080"><ele></ele><time>2014-4-20T20:25:4Z</time></trkpt>
<trkpt lat="46.10444940" lon="6.50696330"><ele></ele><time>2014-4-20T20:25:7Z</time></trkpt>
<trkpt lat="46.10462260" lon="6.50693180"><ele></ele><time>2014-4-20T20:25:10Z</time></trkpt>
<trkpt lat="46.10577080" lon="6.50695230"><ele></ele><time>2014-4-20T20:25:13Z</time></trkpt>
<trkpt lat="46.10669630" lon="6.50638850"><ele></ele><time>2014-4-20T20:25:16Z</time></trkpt>
<trkpt lat="46.10838640" lon="6.50561510"><ele></ele><time>2014-4-20T20:25:19Z</time></trkpt>
<trkpt lat="46.10993160" lon="6.50535510"><ele></ele><time>2014-4-20T20:25:22Z</time></trkpt>
<trkpt lat="46.11144810" lon="6.50501060"><ele></ele><time>2014-4-20T20:25:25Z</time></trkpt>
<trkpt lat="46.11161080" lon="6.50493080"><ele></ele><time>2014-4-20T20:25:28Z</time></trkpt>
<trkpt lat="46.11176780" lon="6.50482290"><ele></ele><time>2014-4-20T20:25:31Z</time></trkpt>
<trkpt lat="46.11259040" lon="6.50408440"><ele></ele><time>2014-4-20T20:25:34Z</time></trkpt>
<trkpt lat="46.11323950" lon="6.50283000"><ele></ele><time>2014-4-20T20:25:37Z</time></trkpt>
<trkpt lat="46.11380100" lon="6.50114300"><ele></ele><time>2014-4-20T20:25:40Z</time></trkpt>
<trkpt lat="46.11422040" lon="6.50061590"><ele></ele><time>2014-4-20T20:25:43Z</time></trkpt>
<trkpt lat="46.11492150" lon="6.50008430"><ele></ele><time>2014-4-20T20:25:46Z</time></trkpt>
<trkpt lat="46.11600280" lon="6.49934300"><ele></ele><time>2014-4-20T20:25:49Z</time></trkpt>
<trkpt lat="46.11804680" lon="6.49821380"><ele></ele><time>2014-4-20T20:25:52Z</time></trkpt>
<trkpt lat="46.11902280" lon="6.49726660"><ele></ele><time>2014-4-20T20:25:55Z</time></trkpt>
<trkpt lat="46.11987440" lon="6.49625800"><ele></ele><time>2014-4-20T20:25:58Z</time></trkpt>
<trkpt lat="46.12058450" lon="6.49533230"><ele></ele><time>2014-4-20T20:26:1Z</time></trkpt>
<trkpt lat="46.12137510" lon="6.49454220"><ele></ele><time>2014-4-20T20:26:4Z</time></trkpt>
<trkpt lat="46.12206660" lon="6.49353740"><ele></ele><time>2014-4-20T20:26:7Z</time></trkpt>
<trkpt lat="46.12250520" lon="6.49265510"><ele></ele><time>2014-4-20T20:26:10Z</time></trkpt>
<trkpt lat="46.12276880" lon="6.49213120"><ele></ele><time>2014-4-20T20:26:13Z</time></trkpt>
<trkpt lat="46.12331600" lon="6.49129530"><ele></ele><time>2014-4-20T20:26:16Z</time></trkpt>
<trkpt lat="46.12419050" lon="6.49040020"><ele></ele><time>2014-4-20T20:26:19Z</time></trkpt>
<trkpt lat="46.12527930" lon="6.48971950"><ele></ele><time>2014-4-20T20:26:22Z</time></trkpt>
<trkpt lat="46.12586640" lon="6.48941940"><ele></ele><time>2014-4-20T20:26:25Z</time></trkpt>
<trkpt lat="46.12668060" lon="6.48897300"><ele></ele><time>2014-4-20T20:26:28Z</time></trkpt>
<trkpt lat="46.12776810" lon="6.48825640"><ele></ele><time>2014-4-20T20:26:31Z</time></trkpt>
<trkpt lat="46.12862280" lon="6.48735260"><ele></ele><time>2014-4-20T20:26:34Z</time></trkpt>
<trkpt lat="46.12904910" lon="6.48671310"><ele></ele><time>2014-4-20T20:26:37Z</time></trkpt>
<trkpt lat="46.12988160" lon="6.48546060"><ele></ele><time>2014-4-20T20:26:40Z</time></trkpt>
<trkpt lat="46.13043730" lon="6.48462070"><ele></ele><time>2014-4-20T20:26:43Z</time></trkpt>
<trkpt lat="46.13090430" lon="6.48391450"><ele></ele><time>2014-4-20T20:26:46Z</time></trkpt>
<trkpt lat="46.13119240" lon="6.48347900"><ele></ele><time>2014-4-20T20:26:49Z</time></trkpt>
<trkpt lat="46.13145080" lon="6.48308430"><ele></ele><time>2014-4-20T20:26:52Z</time></trkpt>
<trkpt lat="46.13206510" lon="6.48213560"><ele></ele><time>2014-4-20T20:26:55Z</time></trkpt>
<trkpt lat="46.13288920" lon="6.48110090"><ele></ele><time>2014-4-20T20:26:58Z</time></trkpt>
<trkpt lat="46.13343780" lon="6.48048970"><ele></ele><time>2014-4-20T20:27:1Z</time></trkpt>
<trkpt lat="46.13388770" lon="6.47998870"><ele></ele><time>2014-4-20T20:27:4Z</time></trkpt>
<trkpt lat="46.13399670" lon="6.47986710"><ele></ele><time>2014-4-20T20:27:7Z</time></trkpt>
<trkpt lat="46.13432690" lon="6.47949940"><ele></ele><time>2014-4-20T20:27:10Z</time></trkpt>
<trkpt lat="46.13518110" lon="6.47851650"><ele></ele><time>2014-4-20T20:27:13Z</time></trkpt>
<trkpt lat="46.13544890" lon="6.47830170"><ele></ele><time>2014-4-20T20:27:16Z</time></trkpt>
<trkpt lat="46.13588980" lon="6.47841230"><ele></ele><time>2014-4-20T20:27:19Z</time></trkpt>
<trkpt lat="46.13590480" lon="6.47847730"><ele></ele><time>2014-4-20T20:27:22Z</time></trkpt>
<trkpt lat="46.13612630" lon="6.47841270"><ele></ele><time>2014-4-20T20:27:25Z</time></trkpt>
<trkpt lat="46.13615560" lon="6.47792300"><ele></ele><time>2014-4-20T20:27:28Z</time></trkpt>
<trkpt lat="46.13651200" lon="6.47689930"><ele></ele><time>2014-4-20T20:27:31Z</time></trkpt>
<trkpt lat="46.13652000" lon="6.47600000"><ele></ele><time>2014-4-20T20:27:34Z</time></trkpt>
<trkpt lat="46.13629600" lon="6.47495180"><ele></ele><time>2014-4-20T20:27:37Z</time></trkpt>
<trkpt lat="46.13591410" lon="6.47385970"><ele></ele><time>2014-4-20T20:27:40Z</time></trkpt>
<trkpt lat="46.13551910" lon="6.47296650"><ele></ele><time>2014-4-20T20:27:43Z</time></trkpt>
<trkpt lat="46.13508090" lon="6.47186270"><ele></ele><time>2014-4-20T20:27:46Z</time></trkpt>
<trkpt lat="46.13482210" lon="6.47105270"><ele></ele><time>2014-4-20T20:27:49Z</time></trkpt>
<trkpt lat="46.13480890" lon="6.47100810"><ele></ele><time>2014-4-20T20:27:52Z</time></trkpt>
<trkpt lat="46.13476660" lon="6.47086600"><ele></ele><time>2014-4-20T20:27:55Z</time></trkpt>
<trkpt lat="46.13510960" lon="6.47014360"><ele></ele><time>2014-4-20T20:27:58Z</time></trkpt>
<trkpt lat="46.13535950" lon="6.46941770"><ele></ele><time>2014-4-20T20:28:1Z</time></trkpt>
<trkpt lat="46.13539580" lon="6.46931200"><ele></ele><time>2014-4-20T20:28:4Z</time></trkpt>
<trkpt lat="46.13566830" lon="6.46860080"><ele></ele><time>2014-4-20T20:28:7Z</time></trkpt>
<trkpt lat="46.13594960" lon="6.46781110"><ele></ele><time>2014-4-20T20:28:10Z</time></trkpt>
<trkpt lat="46.13612170" lon="6.46732800"><ele></ele><time>2014-4-20T20:28:13Z</time></trkpt>
<trkpt lat="46.13640530" lon="6.46653700"><ele></ele><time>2014-4-20T20:28:16Z</time></trkpt>
<trkpt lat="46.13652050" lon="6.46622480"><ele></ele><time>2014-4-20T20:28:19Z</time></trkpt>
<trkpt lat="46.13673020" lon="6.46559540"><ele></ele><time>2014-4-20T20:28:22Z</time></trkpt>
<trkpt lat="46.13696400" lon="6.46475990"><ele></ele><time>2014-4-20T20:28:25Z</time></trkpt>
<trkpt lat="46.13714410" lon="6.46378950"><ele></ele><time>2014-4-20T20:28:28Z</time></trkpt>
<trkpt lat="46.13716890" lon="6.46364530"><ele></ele><time>2014-4-20T20:28:31Z</time></trkpt>
<trkpt lat="46.13738170" lon="6.46241660"><ele></ele><time>2014-4-20T20:28:34Z</time></trkpt>
<trkpt lat="46.13751790" lon="6.46161980"><ele></ele><time>2014-4-20T20:28:37Z</time></trkpt>
<trkpt lat="46.13767450" lon="6.46069090"><ele></ele><time>2014-4-20T20:28:40Z</time></trkpt>
<trkpt lat="46.13792990" lon="6.45991340"><ele></ele><time>2014-4-20T20:28:43Z</time></trkpt>
<trkpt lat="46.13807200" lon="6.45955320"><ele></ele><time>2014-4-20T20:28:46Z</time></trkpt>
<trkpt lat="46.13819050" lon="6.45838090"><ele></ele><time>2014-4-20T20:28:49Z</time></trkpt>
<trkpt lat="46.13825680" lon="6.45814110"><ele></ele><time>2014-4-20T20:28:52Z</time></trkpt>
<trkpt lat="46.13847390" lon="6.45702680"><ele></ele><time>2014-4-20T20:28:55Z</time></trkpt>
<trkpt lat="46.13849470" lon="6.45682610"><ele></ele><time>2014-4-20T20:28:58Z</time></trkpt>
<trkpt lat="46.13850820" lon="6.45654470"><ele></ele><time>2014-4-20T20:29:1Z</time></trkpt>
<trkpt lat="46.13846510" lon="6.45560960"><ele></ele><time>2014-4-20T20:29:4Z</time></trkpt>
<trkpt lat="46.13837910" lon="6.45502280"><ele></ele><time>2014-4-20T20:29:7Z</time></trkpt>
<trkpt lat="46.13797910" lon="6.45379460"><ele></ele><time>2014-4-20T20:29:10Z</time></trkpt>
<trkpt lat="46.13766470" lon="6.45286130"><ele></ele><time>2014-4-20T20:29:13Z</time></trkpt>
<trkpt lat="46.13752850" lon="6.45246420"><ele></ele><time>2014-4-20T20:29:16Z</time></trkpt>
<trkpt lat="46.13703700" lon="6.45107650"><ele></ele><time>2014-4-20T20:29:19Z</time></trkpt>
<trkpt lat="46.13679630" lon="6.45036570"><ele></ele><time>2014-4-20T20:29:22Z</time></trkpt>
<trkpt lat="46.13642430" lon="6.44926690"><ele></ele><time>2014-4-20T20:29:25Z</time></trkpt>
<trkpt lat="46.13581110" lon="6.44721270"><ele></ele><time>2014-4-20T20:29:28Z</time></trkpt>
<trkpt lat="46.13537140" lon="6.44506600"><ele></ele><time>2014-4-20T20:29:31Z</time></trkpt>
<trkpt lat="46.13533830" lon="6.44489850"><ele></ele><time>2014-4-20T20:29:34Z</time></trkpt>
<trkpt lat="46.13512250" lon="6.44383730"><ele></ele><time>2014-4-20T20:29:37Z</time></trkpt>
<trkpt lat="46.13504040" lon="6.44278930"><ele></ele><time>2014-4-20T20:29:40Z</time></trkpt>
<trkpt lat="46.13522830" lon="6.44172520"><ele></ele><time>2014-4-20T20:29:43Z</time></trkpt>
<trkpt lat="46.13546890" lon="6.44050540"><ele></ele><time>2014-4-20T20:29:46Z</time></trkpt>
<trkpt lat="46.13603350" lon="6.43955470"><ele></ele><time>2014-4-20T20:29:49Z</time></trkpt>
<trkpt lat="46.13581900" lon="6.43865350"><ele></ele><time>2014-4-20T20:29:52Z</time></trkpt>
<trkpt lat="46.13568070" lon="6.43838890"><ele></ele><time>2014-4-20T20:29:55Z</time></trkpt>
<trkpt lat="46.13561610" lon="6.43795830"><ele></ele><time>2014-4-20T20:29:58Z</time></trkpt>
<trkpt lat="46.13558120" lon="6.43758740"><ele></ele><time>2014-4-20T20:30:1Z</time></trkpt>
<trkpt lat="46.13557110" lon="6.43748080"><ele></ele><time>2014-4-20T20:30:4Z</time></trkpt>
<trkpt lat="46.13555200" lon="6.43727850"><ele></ele><time>2014-4-20T20:30:7Z</time></trkpt>
<trkpt lat="46.13553070" lon="6.43678950"><ele></ele><time>2014-4-20T20:30:10Z</time></trkpt>
<trkpt lat="46.13578850" lon="6.43632960"><ele></ele><time>2014-4-20T20:30:13Z</time></trkpt>
<trkpt lat="46.13603090" lon="6.43604900"><ele></ele><time>2014-4-20T20:30:16Z</time></trkpt>
<trkpt lat="46.13619020" lon="6.43577550"><ele></ele><time>2014-4-20T20:30:19Z</time></trkpt>
<trkpt lat="46.13620520" lon="6.43556620"><ele></ele><time>2014-4-20T20:30:22Z</time></trkpt>
<trkpt lat="46.13609350" lon="6.43510670"><ele></ele><time>2014-4-20T20:30:25Z</time></trkpt>
<trkpt lat="46.13576530" lon="6.43467550"><ele></ele><time>2014-4-20T20:30:28Z</time></trkpt>
<trkpt lat="46.13483190" lon="6.43485550"><ele></ele><time>2014-4-20T20:30:31Z</time></trkpt>
<trkpt lat="46.13483190" lon="6.43485550"><ele></ele><time>2014-4-20T20:30:34Z</time></trkpt>
<trkpt lat="46.13476530" lon="6.43474700"><ele></ele><time>2014-4-20T20:30:37Z</time></trkpt>
<trkpt lat="46.13479800" lon="6.43395420"><ele></ele><time>2014-4-20T20:30:40Z</time></trkpt>
<trkpt lat="46.13429670" lon="6.43397880"><ele></ele><time>2014-4-20T20:30:43Z</time></trkpt>
<trkpt lat="46.13370620" lon="6.43387370"><ele></ele><time>2014-4-20T20:30:46Z</time></trkpt>
<trkpt lat="46.13328890" lon="6.43326000"><ele></ele><time>2014-4-20T20:30:49Z</time></trkpt>
<trkpt lat="46.13310710" lon="6.43213400"><ele></ele><time>2014-4-20T20:30:52Z</time></trkpt>
<trkpt lat="46.13316790" lon="6.43124520"><ele></ele><time>2014-4-20T20:30:55Z</time></trkpt>
<trkpt lat="46.13326380" lon="6.43096740"><ele></ele><time>2014-4-20T20:30:58Z</time></trkpt>
<trkpt lat="46.13329780" lon="6.43066970"><ele></ele><time>2014-4-20T20:31:1Z</time></trkpt>
<trkpt lat="46.13322970" lon="6.43027770"><ele></ele><time>2014-4-20T20:31:4Z</time></trkpt>
<trkpt lat="46.13312020" lon="6.42996960"><ele></ele><time>2014-4-20T20:31:7Z</time></trkpt>
<trkpt lat="46.13308960" lon="6.42988300"><ele></ele><time>2014-4-20T20:31:10Z</time></trkpt>
<trkpt lat="46.13298570" lon="6.42940040"><ele></ele><time>2014-4-20T20:31:13Z</time></trkpt>
<trkpt lat="46.13273480" lon="6.42784030"><ele></ele><time>2014-4-20T20:31:16Z</time></trkpt>
<trkpt lat="46.13261060" lon="6.42608980"><ele></ele><time>2014-4-20T20:31:19Z</time></trkpt>
<trkpt lat="46.13254800" lon="6.42477920"><ele></ele><time>2014-4-20T20:31:22Z</time></trkpt>
<trkpt lat="46.13244560" lon="6.42293200"><ele></ele><time>2014-4-20T20:31:25Z</time></trkpt>
<trkpt lat="46.13229860" lon="6.42060200"><ele></ele><time>2014-4-20T20:31:28Z</time></trkpt>
<trkpt lat="46.13218230" lon="6.41848120"><ele></ele><time>2014-4-20T20:31:31Z</time></trkpt>
<trkpt lat="46.13217210" lon="6.41829380"><ele></ele><time>2014-4-20T20:31:34Z</time></trkpt>
<trkpt lat="46.13188820" lon="6.41651060"><ele></ele><time>2014-4-20T20:31:37Z</time></trkpt>
<trkpt lat="46.13181220" lon="6.41620930"><ele></ele><time>2014-4-20T20:31:40Z</time></trkpt>
<trkpt lat="46.13054180" lon="6.41624910"><ele></ele><time>2014-4-20T20:31:43Z</time></trkpt>
<trkpt lat="46.13047890" lon="6.41625100"><ele></ele><time>2014-4-20T20:31:46Z</time></trkpt>
<trkpt lat="46.12970320" lon="6.41661670"><ele></ele><time>2014-4-20T20:31:49Z</time></trkpt>
<trkpt lat="46.12951790" lon="6.41639640"><ele></ele><time>2014-4-20T20:31:52Z</time></trkpt>
<trkpt lat="46.12949100" lon="6.41613520"><ele></ele><time>2014-4-20T20:31:55Z</time></trkpt>
<trkpt lat="46.12940310" lon="6.41555130"><ele></ele><time>2014-4-20T20:31:58Z</time></trkpt>
<trkpt lat="46.12917720" lon="6.41429900"><ele></ele><time>2014-4-20T20:32:1Z</time></trkpt>
<trkpt lat="46.12895590" lon="6.41311560"><ele></ele><time>2014-4-20T20:32:4Z</time></trkpt>
<trkpt lat="46.12859490" lon="6.41167440"><ele></ele><time>2014-4-20T20:32:7Z</time></trkpt>
<trkpt lat="46.12824810" lon="6.41026710"><ele></ele><time>2014-4-20T20:32:10Z</time></trkpt>
<trkpt lat="46.12821370" lon="6.41002420"><ele></ele><time>2014-4-20T20:32:13Z</time></trkpt>
<trkpt lat="46.12797630" lon="6.40834630"><ele></ele><time>2014-4-20T20:32:16Z</time></trkpt>
<trkpt lat="46.12797060" lon="6.40813540"><ele></ele><time>2014-4-20T20:32:19Z</time></trkpt>
<trkpt lat="46.12797960" lon="6.40790140"><ele></ele><time>2014-4-20T20:32:22Z</time></trkpt>
<trkpt lat="46.12780090" lon="6.40643380"><ele></ele><time>2014-4-20T20:32:25Z</time></trkpt>
<trkpt lat="46.12760130" lon="6.40527510"><ele></ele><time>2014-4-20T20:32:28Z</time></trkpt>
<trkpt lat="46.12726030" lon="6.40418810"><ele></ele><time>2014-4-20T20:32:31Z</time></trkpt>
<trkpt lat="46.12713340" lon="6.40394690"><ele></ele><time>2014-4-20T20:32:34Z</time></trkpt>
<trkpt lat="46.12675980" lon="6.40354880"><ele></ele><time>2014-4-20T20:32:37Z</time></trkpt>
<trkpt lat="46.12662660" lon="6.40344640"><ele></ele><time>2014-4-20T20:32:40Z</time></trkpt>
<trkpt lat="46.12632910" lon="6.40321740"><ele></ele><time>2014-4-20T20:32:43Z</time></trkpt>
<trkpt lat="46.12595590" lon="6.40288630"><ele></ele><time>2014-4-20T20:32:46Z</time></trkpt>
<trkpt lat="46.12582510" lon="6.40262170"><ele></ele><time>2014-4-20T20:32:49Z</time></trkpt>
<trkpt lat="46.12585040" lon="6.40190460"><ele></ele><time>2014-4-20T20:32:52Z</time></trkpt>
<trkpt lat="46.12585900" lon="6.40177000"><ele></ele><time>2014-4-20T20:32:55Z</time></trkpt>
<trkpt lat="46.12585900" lon="6.40177000"><ele></ele><time>2014-4-20T20:32:58Z</time></trkpt>
<trkpt lat="46.12586110" lon="6.40173750"><ele></ele><time>2014-4-20T20:33:1Z</time></trkpt>
<trkpt lat="46.12586850" lon="6.40162190"><ele></ele><time>2014-4-20T20:33:4Z</time></trkpt>
<trkpt lat="46.12590360" lon="6.40107970"><ele></ele><time>2014-4-20T20:33:7Z</time></trkpt>
<trkpt lat="46.12594880" lon="6.40050630"><ele></ele><time>2014-4-20T20:33:10Z</time></trkpt>
<trkpt lat="46.12600150" lon="6.39994170"><ele></ele><time>2014-4-20T20:33:13Z</time></trkpt>
<trkpt lat="46.12604360" lon="6.39931070"><ele></ele><time>2014-4-20T20:33:16Z</time></trkpt>
<trkpt lat="46.12608730" lon="6.39873600"><ele></ele><time>2014-4-20T20:33:19Z</time></trkpt>
<trkpt lat="46.12611460" lon="6.39816500"><ele></ele><time>2014-4-20T20:33:22Z</time></trkpt>
<trkpt lat="46.12612010" lon="6.39770020"><ele></ele><time>2014-4-20T20:33:25Z</time></trkpt>
<trkpt lat="46.12612010" lon="6.39748780"><ele></ele><time>2014-4-20T20:33:28Z</time></trkpt>
<trkpt lat="46.12610980" lon="6.39737030"><ele></ele><time>2014-4-20T20:33:31Z</time></trkpt>
<trkpt lat="46.12605570" lon="6.39679030"><ele></ele><time>2014-4-20T20:33:34Z</time></trkpt>
<trkpt lat="46.12605570" lon="6.39630250"><ele></ele><time>2014-4-20T20:33:37Z</time></trkpt>
<trkpt lat="46.12605570" lon="6.39620260"><ele></ele><time>2014-4-20T20:33:40Z</time></trkpt>
<trkpt lat="46.12593820" lon="6.39570530"><ele></ele><time>2014-4-20T20:33:43Z</time></trkpt>
<trkpt lat="46.12572720" lon="6.39546730"><ele></ele><time>2014-4-20T20:33:46Z</time></trkpt>
<trkpt lat="46.12570230" lon="6.39524230"><ele></ele><time>2014-4-20T20:33:49Z</time></trkpt>
<trkpt lat="46.12588830" lon="6.39491120"><ele></ele><time>2014-4-20T20:33:52Z</time></trkpt>
<trkpt lat="46.12597380" lon="6.39461150"><ele></ele><time>2014-4-20T20:33:55Z</time></trkpt>
<trkpt lat="46.12599130" lon="6.39438460"><ele></ele><time>2014-4-20T20:33:58Z</time></trkpt>
<trkpt lat="46.12591840" lon="6.39430470"><ele></ele><time>2014-4-20T20:34:1Z</time></trkpt>
<trkpt lat="46.12587490" lon="6.39430720"><ele></ele><time>2014-4-20T20:34:4Z</time></trkpt>
<trkpt lat="46.12598290" lon="6.39422470"><ele></ele><time>2014-4-20T20:34:7Z</time></trkpt>
<trkpt lat="46.12584960" lon="6.39392260"><ele></ele><time>2014-4-20T20:34:10Z</time></trkpt>
<trkpt lat="46.12584110" lon="6.39391420"><ele></ele><time>2014-4-20T20:34:13Z</time></trkpt>
</trkseg></trk></gpx>